<?xml version="1.0" encoding="UTF-8" standalone="no" ?>
<gpx xmlns="http://www.topografix.com/GPX/1/1" xmlns:xsi="http://www.w3.org/2001/XMLSchema-instance" xsi:schemaLocation="http://www.topografix.com/GPX/1/1 http://www.topografix.com/GPX/1/1/gpx.xsd" version="1.1" creator="VisuGPX - https://www.visugpx.com">
  <metadata>
    <name>Petite traversée St Agnan Col du Rousset </name>
    <desc><![CDATA[Premier jour: St Agnan Cabane de la Jasse du Play]]></desc>
  </metadata>
  <trk>
    <name><![CDATA[Petite traversée St Agnan Col du Rousset _1]]></name>
    <trkseg>
      <trkpt lat="44.93271" lon="5.4307">
        <ele>826.525</ele>
        <time>2019-06-01T08:20:45Z</time>
      </trkpt>
      <trkpt lat="44.93001" lon="5.43545">
        <ele>861.349</ele>
        <time>2019-06-01T08:32:04Z</time>
      </trkpt>
      <trkpt lat="44.93001" lon="5.43557">
        <ele>849.007</ele>
        <time>2019-06-01T08:32:15Z</time>
      </trkpt>
      <trkpt lat="44.93003" lon="5.43569">
        <ele>865.458</ele>
        <time>2019-06-01T08:32:26Z</time>
      </trkpt>
      <trkpt lat="44.92975" lon="5.43584">
        <ele>880.686</ele>
        <time>2019-06-01T08:35:32Z</time>
      </trkpt>
      <trkpt lat="44.92924" lon="5.43715">
        <ele>892.868</ele>
        <time>2019-06-01T08:35:42Z</time>
      </trkpt>
      <trkpt lat="44.92921" lon="5.43721">
        <ele>899.788</ele>
        <time>2019-06-01T08:35:52Z</time>
      </trkpt>
      <trkpt lat="44.92914" lon="5.4373">
        <ele>896.965</ele>
        <time>2019-06-01T08:36:02Z</time>
      </trkpt>
      <trkpt lat="44.92914" lon="5.43749">
        <ele>898.299</ele>
        <time>2019-06-01T08:36:12Z</time>
      </trkpt>
      <trkpt lat="44.92908" lon="5.43755">
        <ele>898.102</ele>
        <time>2019-06-01T08:36:22Z</time>
      </trkpt>
      <trkpt lat="44.92903" lon="5.43757">
        <ele>897.59</ele>
        <time>2019-06-01T08:36:32Z</time>
      </trkpt>
      <trkpt lat="44.92903" lon="5.43768">
        <ele>898.052</ele>
        <time>2019-06-01T08:36:43Z</time>
      </trkpt>
      <trkpt lat="44.929" lon="5.4378">
        <ele>900.005</ele>
        <time>2019-06-01T08:36:54Z</time>
      </trkpt>
      <trkpt lat="44.92894" lon="5.43797">
        <ele>902.344</ele>
        <time>2019-06-01T08:37:04Z</time>
      </trkpt>
      <trkpt lat="44.92894" lon="5.43804">
        <ele>903.307</ele>
        <time>2019-06-01T08:37:14Z</time>
      </trkpt>
      <trkpt lat="44.92896" lon="5.43807">
        <ele>904.619</ele>
        <time>2019-06-01T08:37:25Z</time>
      </trkpt>
      <trkpt lat="44.92895" lon="5.43816">
        <ele>905.502</ele>
        <time>2019-06-01T08:37:35Z</time>
      </trkpt>
      <trkpt lat="44.92894" lon="5.43823">
        <ele>905.737</ele>
        <time>2019-06-01T08:37:45Z</time>
      </trkpt>
      <trkpt lat="44.92891" lon="5.43839">
        <ele>907.153</ele>
        <time>2019-06-01T08:37:56Z</time>
      </trkpt>
      <trkpt lat="44.9289" lon="5.43845">
        <ele>908.118</ele>
        <time>2019-06-01T08:38:07Z</time>
      </trkpt>
      <trkpt lat="44.92887" lon="5.43856">
        <ele>909.8</ele>
        <time>2019-06-01T08:38:18Z</time>
      </trkpt>
      <trkpt lat="44.92881" lon="5.43862">
        <ele>911.608</ele>
        <time>2019-06-01T08:38:28Z</time>
      </trkpt>
      <trkpt lat="44.92877" lon="5.43866">
        <ele>912.731</ele>
        <time>2019-06-01T08:38:38Z</time>
      </trkpt>
      <trkpt lat="44.92874" lon="5.43875">
        <ele>914.199</ele>
        <time>2019-06-01T08:38:49Z</time>
      </trkpt>
      <trkpt lat="44.92872" lon="5.43877">
        <ele>915.771</ele>
        <time>2019-06-01T08:38:59Z</time>
      </trkpt>
      <trkpt lat="44.92872" lon="5.43884">
        <ele>917.92</ele>
        <time>2019-06-01T08:39:10Z</time>
      </trkpt>
      <trkpt lat="44.92866" lon="5.43891">
        <ele>919.816</ele>
        <time>2019-06-01T08:39:21Z</time>
      </trkpt>
      <trkpt lat="44.92863" lon="5.43898">
        <ele>920.805</ele>
        <time>2019-06-01T08:39:32Z</time>
      </trkpt>
      <trkpt lat="44.92858" lon="5.43901">
        <ele>922.076</ele>
        <time>2019-06-01T08:39:43Z</time>
      </trkpt>
      <trkpt lat="44.92853" lon="5.43906">
        <ele>924.546</ele>
        <time>2019-06-01T08:39:54Z</time>
      </trkpt>
      <trkpt lat="44.92851" lon="5.43907">
        <ele>926.345</ele>
        <time>2019-06-01T08:40:04Z</time>
      </trkpt>
      <trkpt lat="44.92846" lon="5.43912">
        <ele>927.316</ele>
        <time>2019-06-01T08:40:14Z</time>
      </trkpt>
      <trkpt lat="44.92839" lon="5.43915">
        <ele>928.633</ele>
        <time>2019-06-01T08:40:25Z</time>
      </trkpt>
      <trkpt lat="44.92833" lon="5.43918">
        <ele>929.911</ele>
        <time>2019-06-01T08:40:35Z</time>
      </trkpt>
      <trkpt lat="44.9283" lon="5.43925">
        <ele>931.125</ele>
        <time>2019-06-01T08:40:45Z</time>
      </trkpt>
      <trkpt lat="44.92824" lon="5.43933">
        <ele>934.293</ele>
        <time>2019-06-01T08:40:56Z</time>
      </trkpt>
      <trkpt lat="44.92821" lon="5.4394">
        <ele>936.198</ele>
        <time>2019-06-01T08:41:06Z</time>
      </trkpt>
      <trkpt lat="44.92818" lon="5.43945">
        <ele>937.769</ele>
        <time>2019-06-01T08:41:16Z</time>
      </trkpt>
      <trkpt lat="44.92815" lon="5.43956">
        <ele>940.176</ele>
        <time>2019-06-01T08:41:26Z</time>
      </trkpt>
      <trkpt lat="44.92812" lon="5.43962">
        <ele>942.597</ele>
        <time>2019-06-01T08:41:37Z</time>
      </trkpt>
      <trkpt lat="44.92807" lon="5.43969">
        <ele>943.989</ele>
        <time>2019-06-01T08:41:48Z</time>
      </trkpt>
      <trkpt lat="44.92803" lon="5.43972">
        <ele>945.438</ele>
        <time>2019-06-01T08:41:58Z</time>
      </trkpt>
      <trkpt lat="44.92801" lon="5.43981">
        <ele>947.038</ele>
        <time>2019-06-01T08:42:09Z</time>
      </trkpt>
      <trkpt lat="44.92793" lon="5.43991">
        <ele>948.435</ele>
        <time>2019-06-01T08:42:20Z</time>
      </trkpt>
      <trkpt lat="44.92783" lon="5.43997">
        <ele>949.522</ele>
        <time>2019-06-01T08:42:30Z</time>
      </trkpt>
      <trkpt lat="44.92777" lon="5.44004">
        <ele>949.74</ele>
        <time>2019-06-01T08:42:41Z</time>
      </trkpt>
      <trkpt lat="44.92775" lon="5.44012">
        <ele>950.801</ele>
        <time>2019-06-01T08:42:52Z</time>
      </trkpt>
      <trkpt lat="44.92771" lon="5.44018">
        <ele>952.055</ele>
        <time>2019-06-01T08:43:03Z</time>
      </trkpt>
      <trkpt lat="44.92765" lon="5.44024">
        <ele>953.749</ele>
        <time>2019-06-01T08:43:13Z</time>
      </trkpt>
      <trkpt lat="44.92762" lon="5.44032">
        <ele>954.861</ele>
        <time>2019-06-01T08:43:24Z</time>
      </trkpt>
      <trkpt lat="44.9276" lon="5.44034">
        <ele>955.659</ele>
        <time>2019-06-01T08:43:34Z</time>
      </trkpt>
      <trkpt lat="44.92763" lon="5.4404">
        <ele>956.08</ele>
        <time>2019-06-01T08:43:45Z</time>
      </trkpt>
      <trkpt lat="44.92756" lon="5.44035">
        <ele>956.969</ele>
        <time>2019-06-01T08:43:55Z</time>
      </trkpt>
      <trkpt lat="44.92749" lon="5.44036">
        <ele>958.096</ele>
        <time>2019-06-01T08:44:06Z</time>
      </trkpt>
      <trkpt lat="44.92745" lon="5.44039">
        <ele>958.867</ele>
        <time>2019-06-01T08:44:17Z</time>
      </trkpt>
      <trkpt lat="44.92746" lon="5.44047">
        <ele>959.498</ele>
        <time>2019-06-01T08:44:28Z</time>
      </trkpt>
      <trkpt lat="44.92744" lon="5.44049">
        <ele>960.352</ele>
        <time>2019-06-01T08:44:39Z</time>
      </trkpt>
      <trkpt lat="44.92741" lon="5.44048">
        <ele>960.631</ele>
        <time>2019-06-01T08:44:50Z</time>
      </trkpt>
      <trkpt lat="44.92741" lon="5.4405">
        <ele>963.661</ele>
        <time>2019-06-01T08:45:00Z</time>
      </trkpt>
      <trkpt lat="44.92747" lon="5.44053">
        <ele>964.961</ele>
        <time>2019-06-01T08:45:10Z</time>
      </trkpt>
      <trkpt lat="44.9275" lon="5.44056">
        <ele>965.377</ele>
        <time>2019-06-01T08:45:20Z</time>
      </trkpt>
      <trkpt lat="44.9275" lon="5.44055">
        <ele>965.525</ele>
        <time>2019-06-01T08:45:30Z</time>
      </trkpt>
      <trkpt lat="44.92748" lon="5.44054">
        <ele>966.487</ele>
        <time>2019-06-01T08:45:41Z</time>
      </trkpt>
      <trkpt lat="44.92745" lon="5.4405">
        <ele>967.798</ele>
        <time>2019-06-01T08:45:52Z</time>
      </trkpt>
      <trkpt lat="44.92747" lon="5.44046">
        <ele>968.312</ele>
        <time>2019-06-01T08:46:02Z</time>
      </trkpt>
      <trkpt lat="44.92747" lon="5.44045">
        <ele>968.488</ele>
        <time>2019-06-01T08:46:13Z</time>
      </trkpt>
      <trkpt lat="44.92747" lon="5.44044">
        <ele>968.678</ele>
        <time>2019-06-01T08:46:25Z</time>
      </trkpt>
      <trkpt lat="44.92747" lon="5.44045">
        <ele>969.822</ele>
        <time>2019-06-01T08:46:36Z</time>
      </trkpt>
      <trkpt lat="44.92745" lon="5.44043">
        <ele>970.881</ele>
        <time>2019-06-01T08:46:47Z</time>
      </trkpt>
      <trkpt lat="44.92739" lon="5.44049">
        <ele>972.112</ele>
        <time>2019-06-01T08:46:58Z</time>
      </trkpt>
      <trkpt lat="44.92739" lon="5.44051">
        <ele>973.307</ele>
        <time>2019-06-01T08:47:08Z</time>
      </trkpt>
      <trkpt lat="44.92742" lon="5.4405">
        <ele>974.108</ele>
        <time>2019-06-01T08:47:19Z</time>
      </trkpt>
      <trkpt lat="44.9274" lon="5.44053">
        <ele>974.286</ele>
        <time>2019-06-01T08:47:29Z</time>
      </trkpt>
      <trkpt lat="44.92736" lon="5.44061">
        <ele>975.078</ele>
        <time>2019-06-01T08:47:40Z</time>
      </trkpt>
      <trkpt lat="44.92729" lon="5.44062">
        <ele>975.778</ele>
        <time>2019-06-01T08:47:51Z</time>
      </trkpt>
      <trkpt lat="44.92721" lon="5.44067">
        <ele>976.686</ele>
        <time>2019-06-01T08:48:02Z</time>
      </trkpt>
      <trkpt lat="44.92713" lon="5.44068">
        <ele>977.691</ele>
        <time>2019-06-01T08:48:13Z</time>
      </trkpt>
      <trkpt lat="44.92706" lon="5.44079">
        <ele>978.907</ele>
        <time>2019-06-01T08:48:23Z</time>
      </trkpt>
      <trkpt lat="44.927" lon="5.44088">
        <ele>979.844</ele>
        <time>2019-06-01T08:48:34Z</time>
      </trkpt>
      <trkpt lat="44.92696" lon="5.44091">
        <ele>980.466</ele>
        <time>2019-06-01T08:48:44Z</time>
      </trkpt>
      <trkpt lat="44.92695" lon="5.4409">
        <ele>980.791</ele>
        <time>2019-06-01T08:48:55Z</time>
      </trkpt>
      <trkpt lat="44.92694" lon="5.4409">
        <ele>981.158</ele>
        <time>2019-06-01T08:49:05Z</time>
      </trkpt>
      <trkpt lat="44.92689" lon="5.44088">
        <ele>983.423</ele>
        <time>2019-06-01T08:49:16Z</time>
      </trkpt>
      <trkpt lat="44.92684" lon="5.44091">
        <ele>986.857</ele>
        <time>2019-06-01T08:49:27Z</time>
      </trkpt>
      <trkpt lat="44.9268" lon="5.44094">
        <ele>988.107</ele>
        <time>2019-06-01T08:49:37Z</time>
      </trkpt>
      <trkpt lat="44.92672" lon="5.44099">
        <ele>989.64</ele>
        <time>2019-06-01T08:49:48Z</time>
      </trkpt>
      <trkpt lat="44.92666" lon="5.44107">
        <ele>991.324</ele>
        <time>2019-06-01T08:49:58Z</time>
      </trkpt>
      <trkpt lat="44.92663" lon="5.44114">
        <ele>993.316</ele>
        <time>2019-06-01T08:50:09Z</time>
      </trkpt>
      <trkpt lat="44.92658" lon="5.4412">
        <ele>995.465</ele>
        <time>2019-06-01T08:50:20Z</time>
      </trkpt>
      <trkpt lat="44.92657" lon="5.44126">
        <ele>997.432</ele>
        <time>2019-06-01T08:50:31Z</time>
      </trkpt>
      <trkpt lat="44.9265" lon="5.4414">
        <ele>999.133</ele>
        <time>2019-06-01T08:50:42Z</time>
      </trkpt>
      <trkpt lat="44.92642" lon="5.44149">
        <ele>999.872</ele>
        <time>2019-06-01T08:50:53Z</time>
      </trkpt>
      <trkpt lat="44.92632" lon="5.44154">
        <ele>1000.714</ele>
        <time>2019-06-01T08:51:04Z</time>
      </trkpt>
      <trkpt lat="44.92626" lon="5.44156">
        <ele>1001.833</ele>
        <time>2019-06-01T08:51:14Z</time>
      </trkpt>
      <trkpt lat="44.92617" lon="5.44155">
        <ele>1003.08</ele>
        <time>2019-06-01T08:51:24Z</time>
      </trkpt>
      <trkpt lat="44.92607" lon="5.44157">
        <ele>1004.066</ele>
        <time>2019-06-01T08:51:35Z</time>
      </trkpt>
      <trkpt lat="44.92597" lon="5.44161">
        <ele>1005.535</ele>
        <time>2019-06-01T08:51:45Z</time>
      </trkpt>
      <trkpt lat="44.9259" lon="5.44163">
        <ele>1006.519</ele>
        <time>2019-06-01T08:51:55Z</time>
      </trkpt>
      <trkpt lat="44.92579" lon="5.44164">
        <ele>1007.865</ele>
        <time>2019-06-01T08:52:06Z</time>
      </trkpt>
      <trkpt lat="44.92567" lon="5.44166">
        <ele>1009.37</ele>
        <time>2019-06-01T08:52:17Z</time>
      </trkpt>
      <trkpt lat="44.92561" lon="5.44165">
        <ele>1010.301</ele>
        <time>2019-06-01T08:52:28Z</time>
      </trkpt>
      <trkpt lat="44.92561" lon="5.44163">
        <ele>1010.519</ele>
        <time>2019-06-01T08:52:39Z</time>
      </trkpt>
      <trkpt lat="44.92561" lon="5.44162">
        <ele>1010.776</ele>
        <time>2019-06-01T08:52:49Z</time>
      </trkpt>
      <trkpt lat="44.9256" lon="5.4416">
        <ele>1011.303</ele>
        <time>2019-06-01T08:52:59Z</time>
      </trkpt>
      <trkpt lat="44.92555" lon="5.44162">
        <ele>1013.879</ele>
        <time>2019-06-01T08:53:10Z</time>
      </trkpt>
      <trkpt lat="44.92549" lon="5.44162">
        <ele>1015.519</ele>
        <time>2019-06-01T08:53:21Z</time>
      </trkpt>
      <trkpt lat="44.92539" lon="5.4416">
        <ele>1016.713</ele>
        <time>2019-06-01T08:53:31Z</time>
      </trkpt>
      <trkpt lat="44.9253" lon="5.44165">
        <ele>1017.293</ele>
        <time>2019-06-01T08:53:42Z</time>
      </trkpt>
      <trkpt lat="44.92522" lon="5.44178">
        <ele>1017.768</ele>
        <time>2019-06-01T08:53:53Z</time>
      </trkpt>
      <trkpt lat="44.92518" lon="5.44187">
        <ele>1017.916</ele>
        <time>2019-06-01T08:54:03Z</time>
      </trkpt>
      <trkpt lat="44.92514" lon="5.44191">
        <ele>1018.302</ele>
        <time>2019-06-01T08:54:14Z</time>
      </trkpt>
      <trkpt lat="44.92519" lon="5.44184">
        <ele>1019.986</ele>
        <time>2019-06-01T08:54:25Z</time>
      </trkpt>
      <trkpt lat="44.92525" lon="5.44175">
        <ele>1022.849</ele>
        <time>2019-06-01T08:54:36Z</time>
      </trkpt>
      <trkpt lat="44.9253" lon="5.44169">
        <ele>1024.932</ele>
        <time>2019-06-01T08:54:47Z</time>
      </trkpt>
      <trkpt lat="44.9254" lon="5.44171">
        <ele>1027.358</ele>
        <time>2019-06-01T08:54:57Z</time>
      </trkpt>
      <trkpt lat="44.92537" lon="5.44177">
        <ele>1029.041</ele>
        <time>2019-06-01T08:55:07Z</time>
      </trkpt>
      <trkpt lat="44.92529" lon="5.44187">
        <ele>1029.977</ele>
        <time>2019-06-01T08:55:18Z</time>
      </trkpt>
      <trkpt lat="44.92523" lon="5.442">
        <ele>1030.3</ele>
        <time>2019-06-01T08:55:29Z</time>
      </trkpt>
      <trkpt lat="44.92519" lon="5.44202">
        <ele>1030.677</ele>
        <time>2019-06-01T08:55:39Z</time>
      </trkpt>
      <trkpt lat="44.9251" lon="5.442">
        <ele>1031.905</ele>
        <time>2019-06-01T08:55:49Z</time>
      </trkpt>
      <trkpt lat="44.92503" lon="5.442">
        <ele>1033.599</ele>
        <time>2019-06-01T08:55:59Z</time>
      </trkpt>
      <trkpt lat="44.92493" lon="5.44205">
        <ele>1035.21</ele>
        <time>2019-06-01T08:56:09Z</time>
      </trkpt>
      <trkpt lat="44.92485" lon="5.44206">
        <ele>1036.302</ele>
        <time>2019-06-01T08:56:20Z</time>
      </trkpt>
      <trkpt lat="44.92478" lon="5.44199">
        <ele>1036.665</ele>
        <time>2019-06-01T08:56:31Z</time>
      </trkpt>
      <trkpt lat="44.92469" lon="5.44195">
        <ele>1036.875</ele>
        <time>2019-06-01T08:56:41Z</time>
      </trkpt>
      <trkpt lat="44.92461" lon="5.44199">
        <ele>1037.435</ele>
        <time>2019-06-01T08:56:52Z</time>
      </trkpt>
      <trkpt lat="44.92461" lon="5.44199">
        <ele>1037.607</ele>
        <time>2019-06-01T08:57:03Z</time>
      </trkpt>
      <trkpt lat="44.92461" lon="5.44199">
        <ele>1037.804</ele>
        <time>2019-06-01T08:57:14Z</time>
      </trkpt>
      <trkpt lat="44.92461" lon="5.442">
        <ele>1038.095</ele>
        <time>2019-06-01T08:57:24Z</time>
      </trkpt>
      <trkpt lat="44.9246" lon="5.442">
        <ele>1038.508</ele>
        <time>2019-06-01T08:57:35Z</time>
      </trkpt>
      <trkpt lat="44.9246" lon="5.44204">
        <ele>1039.78</ele>
        <time>2019-06-01T08:57:45Z</time>
      </trkpt>
      <trkpt lat="44.92465" lon="5.44203">
        <ele>1042.144</ele>
        <time>2019-06-01T08:57:56Z</time>
      </trkpt>
      <trkpt lat="44.92474" lon="5.44208">
        <ele>1044.551</ele>
        <time>2019-06-01T08:58:07Z</time>
      </trkpt>
      <trkpt lat="44.92478" lon="5.44215">
        <ele>1046.153</ele>
        <time>2019-06-01T08:58:17Z</time>
      </trkpt>
      <trkpt lat="44.92485" lon="5.44219">
        <ele>1048.582</ele>
        <time>2019-06-01T08:58:28Z</time>
      </trkpt>
      <trkpt lat="44.92495" lon="5.44222">
        <ele>1050.611</ele>
        <time>2019-06-01T08:58:38Z</time>
      </trkpt>
      <trkpt lat="44.92504" lon="5.44221">
        <ele>1052.34</ele>
        <time>2019-06-01T08:58:49Z</time>
      </trkpt>
      <trkpt lat="44.9251" lon="5.44228">
        <ele>1053.651</ele>
        <time>2019-06-01T08:59:00Z</time>
      </trkpt>
      <trkpt lat="44.92522" lon="5.44236">
        <ele>1054.673</ele>
        <time>2019-06-01T08:59:10Z</time>
      </trkpt>
      <trkpt lat="44.92532" lon="5.44234">
        <ele>1055.31</ele>
        <time>2019-06-01T08:59:21Z</time>
      </trkpt>
      <trkpt lat="44.92524" lon="5.44237">
        <ele>1055.551</ele>
        <time>2019-06-01T08:59:31Z</time>
      </trkpt>
      <trkpt lat="44.92517" lon="5.44238">
        <ele>1056.044</ele>
        <time>2019-06-01T08:59:42Z</time>
      </trkpt>
      <trkpt lat="44.92508" lon="5.44239">
        <ele>1056.969</ele>
        <time>2019-06-01T08:59:52Z</time>
      </trkpt>
      <trkpt lat="44.925" lon="5.44239">
        <ele>1058.216</ele>
        <time>2019-06-01T09:00:02Z</time>
      </trkpt>
      <trkpt lat="44.92494" lon="5.4424">
        <ele>1059.852</ele>
        <time>2019-06-01T09:00:12Z</time>
      </trkpt>
      <trkpt lat="44.92491" lon="5.44243">
        <ele>1061.078</ele>
        <time>2019-06-01T09:00:23Z</time>
      </trkpt>
      <trkpt lat="44.92494" lon="5.44249">
        <ele>1062.574</ele>
        <time>2019-06-01T09:00:33Z</time>
      </trkpt>
      <trkpt lat="44.92496" lon="5.44248">
        <ele>1065.022</ele>
        <time>2019-06-01T09:00:44Z</time>
      </trkpt>
      <trkpt lat="44.92503" lon="5.44245">
        <ele>1067.09</ele>
        <time>2019-06-01T09:00:54Z</time>
      </trkpt>
      <trkpt lat="44.92507" lon="5.44247">
        <ele>1069.413</ele>
        <time>2019-06-01T09:01:05Z</time>
      </trkpt>
      <trkpt lat="44.92509" lon="5.44252">
        <ele>1071.098</ele>
        <time>2019-06-01T09:01:16Z</time>
      </trkpt>
      <trkpt lat="44.92514" lon="5.44255">
        <ele>1072.564</ele>
        <time>2019-06-01T09:01:27Z</time>
      </trkpt>
      <trkpt lat="44.92519" lon="5.44255">
        <ele>1074.175</ele>
        <time>2019-06-01T09:01:37Z</time>
      </trkpt>
      <trkpt lat="44.92527" lon="5.44257">
        <ele>1076.167</ele>
        <time>2019-06-01T09:01:48Z</time>
      </trkpt>
      <trkpt lat="44.92535" lon="5.44259">
        <ele>1077.395</ele>
        <time>2019-06-01T09:01:58Z</time>
      </trkpt>
      <trkpt lat="44.92539" lon="5.44257">
        <ele>1079.516</ele>
        <time>2019-06-01T09:02:09Z</time>
      </trkpt>
      <trkpt lat="44.92546" lon="5.44263">
        <ele>1080.931</ele>
        <time>2019-06-01T09:02:19Z</time>
      </trkpt>
      <trkpt lat="44.92551" lon="5.44267">
        <ele>1082.228</ele>
        <time>2019-06-01T09:02:29Z</time>
      </trkpt>
      <trkpt lat="44.92559" lon="5.44272">
        <ele>1083.415</ele>
        <time>2019-06-01T09:02:40Z</time>
      </trkpt>
      <trkpt lat="44.92565" lon="5.44274">
        <ele>1084.48</ele>
        <time>2019-06-01T09:02:50Z</time>
      </trkpt>
      <trkpt lat="44.92571" lon="5.44276">
        <ele>1086.081</ele>
        <time>2019-06-01T09:03:01Z</time>
      </trkpt>
      <trkpt lat="44.92574" lon="5.44277">
        <ele>1087.117</ele>
        <time>2019-06-01T09:03:11Z</time>
      </trkpt>
      <trkpt lat="44.92572" lon="5.44285">
        <ele>1087.821</ele>
        <time>2019-06-01T09:03:22Z</time>
      </trkpt>
      <trkpt lat="44.92571" lon="5.44292">
        <ele>1087.99</ele>
        <time>2019-06-01T09:03:33Z</time>
      </trkpt>
      <trkpt lat="44.92559" lon="5.44297">
        <ele>1087.449</ele>
        <time>2019-06-01T09:03:44Z</time>
      </trkpt>
      <trkpt lat="44.92554" lon="5.443">
        <ele>1087.022</ele>
        <time>2019-06-01T09:03:55Z</time>
      </trkpt>
      <trkpt lat="44.92553" lon="5.44304">
        <ele>1086.903</ele>
        <time>2019-06-01T09:04:05Z</time>
      </trkpt>
      <trkpt lat="44.92554" lon="5.44311">
        <ele>1086.851</ele>
        <time>2019-06-01T09:04:16Z</time>
      </trkpt>
      <trkpt lat="44.92557" lon="5.44312">
        <ele>1087.574</ele>
        <time>2019-06-01T09:04:27Z</time>
      </trkpt>
      <trkpt lat="44.92564" lon="5.44307">
        <ele>1089.803</ele>
        <time>2019-06-01T09:04:38Z</time>
      </trkpt>
      <trkpt lat="44.92569" lon="5.44306">
        <ele>1093.109</ele>
        <time>2019-06-01T09:04:49Z</time>
      </trkpt>
      <trkpt lat="44.92573" lon="5.44308">
        <ele>1095.014</ele>
        <time>2019-06-01T09:05:00Z</time>
      </trkpt>
      <trkpt lat="44.92578" lon="5.44316">
        <ele>1096.647</ele>
        <time>2019-06-01T09:05:10Z</time>
      </trkpt>
      <trkpt lat="44.9258" lon="5.44318">
        <ele>1098.123</ele>
        <time>2019-06-01T09:05:21Z</time>
      </trkpt>
      <trkpt lat="44.92585" lon="5.44322">
        <ele>1099.728</ele>
        <time>2019-06-01T09:05:32Z</time>
      </trkpt>
      <trkpt lat="44.92597" lon="5.44325">
        <ele>1101.92</ele>
        <time>2019-06-01T09:05:43Z</time>
      </trkpt>
      <trkpt lat="44.92602" lon="5.44323">
        <ele>1103.633</ele>
        <time>2019-06-01T09:05:53Z</time>
      </trkpt>
      <trkpt lat="44.92606" lon="5.4432">
        <ele>1105.98</ele>
        <time>2019-06-01T09:06:04Z</time>
      </trkpt>
      <trkpt lat="44.9261" lon="5.44319">
        <ele>1107.428</ele>
        <time>2019-06-01T09:06:15Z</time>
      </trkpt>
      <trkpt lat="44.92613" lon="5.4432">
        <ele>1108.397</ele>
        <time>2019-06-01T09:06:25Z</time>
      </trkpt>
      <trkpt lat="44.92621" lon="5.44338">
        <ele>1110.125</ele>
        <time>2019-06-01T09:06:36Z</time>
      </trkpt>
      <trkpt lat="44.9262" lon="5.44345">
        <ele>1112.237</ele>
        <time>2019-06-01T09:06:47Z</time>
      </trkpt>
      <trkpt lat="44.92619" lon="5.4435">
        <ele>1112.983</ele>
        <time>2019-06-01T09:06:58Z</time>
      </trkpt>
      <trkpt lat="44.92619" lon="5.44354">
        <ele>1113.357</ele>
        <time>2019-06-01T09:07:09Z</time>
      </trkpt>
      <trkpt lat="44.92621" lon="5.4436">
        <ele>1114.404</ele>
        <time>2019-06-01T09:07:19Z</time>
      </trkpt>
      <trkpt lat="44.92625" lon="5.44371">
        <ele>1117.656</ele>
        <time>2019-06-01T09:07:30Z</time>
      </trkpt>
      <trkpt lat="44.92623" lon="5.44376">
        <ele>1119.942</ele>
        <time>2019-06-01T09:07:41Z</time>
      </trkpt>
      <trkpt lat="44.9262" lon="5.4438">
        <ele>1121.329</ele>
        <time>2019-06-01T09:07:51Z</time>
      </trkpt>
      <trkpt lat="44.92613" lon="5.44382">
        <ele>1123.433</ele>
        <time>2019-06-01T09:08:02Z</time>
      </trkpt>
      <trkpt lat="44.9261" lon="5.44383">
        <ele>1125.68</ele>
        <time>2019-06-01T09:08:12Z</time>
      </trkpt>
      <trkpt lat="44.92615" lon="5.44386">
        <ele>1127.598</ele>
        <time>2019-06-01T09:08:22Z</time>
      </trkpt>
      <trkpt lat="44.92614" lon="5.44395">
        <ele>1129.107</ele>
        <time>2019-06-01T09:08:33Z</time>
      </trkpt>
      <trkpt lat="44.92608" lon="5.44397">
        <ele>1132.141</ele>
        <time>2019-06-01T09:08:44Z</time>
      </trkpt>
      <trkpt lat="44.92611" lon="5.44407">
        <ele>1134.623</ele>
        <time>2019-06-01T09:08:54Z</time>
      </trkpt>
      <trkpt lat="44.92617" lon="5.4441">
        <ele>1136.061</ele>
        <time>2019-06-01T09:09:04Z</time>
      </trkpt>
      <trkpt lat="44.92626" lon="5.44415">
        <ele>1137.355</ele>
        <time>2019-06-01T09:09:15Z</time>
      </trkpt>
      <trkpt lat="44.92629" lon="5.44419">
        <ele>1138.87</ele>
        <time>2019-06-01T09:09:26Z</time>
      </trkpt>
      <trkpt lat="44.92625" lon="5.44427">
        <ele>1140.008</ele>
        <time>2019-06-01T09:09:36Z</time>
      </trkpt>
      <trkpt lat="44.92616" lon="5.44433">
        <ele>1141.004</ele>
        <time>2019-06-01T09:09:46Z</time>
      </trkpt>
      <trkpt lat="44.92612" lon="5.44435">
        <ele>1142.557</ele>
        <time>2019-06-01T09:09:57Z</time>
      </trkpt>
      <trkpt lat="44.92616" lon="5.44439">
        <ele>1144.602</ele>
        <time>2019-06-01T09:10:08Z</time>
      </trkpt>
      <trkpt lat="44.92622" lon="5.44439">
        <ele>1147.235</ele>
        <time>2019-06-01T09:10:19Z</time>
      </trkpt>
      <trkpt lat="44.92619" lon="5.44448">
        <ele>1150.823</ele>
        <time>2019-06-01T09:10:30Z</time>
      </trkpt>
      <trkpt lat="44.92616" lon="5.44455">
        <ele>1152.909</ele>
        <time>2019-06-01T09:10:41Z</time>
      </trkpt>
      <trkpt lat="44.92611" lon="5.44456">
        <ele>1154.707</ele>
        <time>2019-06-01T09:10:52Z</time>
      </trkpt>
      <trkpt lat="44.9261" lon="5.44458">
        <ele>1155.659</ele>
        <time>2019-06-01T09:11:03Z</time>
      </trkpt>
      <trkpt lat="44.9261" lon="5.44464">
        <ele>1156.609</ele>
        <time>2019-06-01T09:11:13Z</time>
      </trkpt>
      <trkpt lat="44.92613" lon="5.44472">
        <ele>1158.15</ele>
        <time>2019-06-01T09:11:24Z</time>
      </trkpt>
      <trkpt lat="44.92614" lon="5.44488">
        <ele>1160.722</ele>
        <time>2019-06-01T09:11:35Z</time>
      </trkpt>
      <trkpt lat="44.92612" lon="5.44491">
        <ele>1162.697</ele>
        <time>2019-06-01T09:11:46Z</time>
      </trkpt>
      <trkpt lat="44.92606" lon="5.44495">
        <ele>1163.95</ele>
        <time>2019-06-01T09:11:56Z</time>
      </trkpt>
      <trkpt lat="44.92604" lon="5.44501">
        <ele>1166.803</ele>
        <time>2019-06-01T09:12:07Z</time>
      </trkpt>
      <trkpt lat="44.92602" lon="5.4451">
        <ele>1170.02</ele>
        <time>2019-06-01T09:12:18Z</time>
      </trkpt>
      <trkpt lat="44.92597" lon="5.44517">
        <ele>1171.118</ele>
        <time>2019-06-01T09:12:28Z</time>
      </trkpt>
      <trkpt lat="44.92594" lon="5.4452">
        <ele>1172.747</ele>
        <time>2019-06-01T09:12:38Z</time>
      </trkpt>
      <trkpt lat="44.92596" lon="5.44524">
        <ele>1175.459</ele>
        <time>2019-06-01T09:12:49Z</time>
      </trkpt>
      <trkpt lat="44.92592" lon="5.44536">
        <ele>1176.7</ele>
        <time>2019-06-01T09:13:00Z</time>
      </trkpt>
      <trkpt lat="44.92586" lon="5.44544">
        <ele>1178.629</ele>
        <time>2019-06-01T09:13:11Z</time>
      </trkpt>
      <trkpt lat="44.92585" lon="5.44545">
        <ele>1179.034</ele>
        <time>2019-06-01T09:13:22Z</time>
      </trkpt>
      <trkpt lat="44.92585" lon="5.44545">
        <ele>1179.61</ele>
        <time>2019-06-01T09:13:32Z</time>
      </trkpt>
      <trkpt lat="44.92585" lon="5.44546">
        <ele>1180.194</ele>
        <time>2019-06-01T09:13:43Z</time>
      </trkpt>
      <trkpt lat="44.9258" lon="5.44549">
        <ele>1182.651</ele>
        <time>2019-06-01T09:13:54Z</time>
      </trkpt>
      <trkpt lat="44.92574" lon="5.44556">
        <ele>1184.815</ele>
        <time>2019-06-01T09:14:05Z</time>
      </trkpt>
      <trkpt lat="44.92572" lon="5.44561">
        <ele>1187.888</ele>
        <time>2019-06-01T09:14:16Z</time>
      </trkpt>
      <trkpt lat="44.92567" lon="5.44568">
        <ele>1190.657</ele>
        <time>2019-06-01T09:14:27Z</time>
      </trkpt>
      <trkpt lat="44.92564" lon="5.44576">
        <ele>1191.945</ele>
        <time>2019-06-01T09:14:37Z</time>
      </trkpt>
      <trkpt lat="44.9256" lon="5.44585">
        <ele>1193.074</ele>
        <time>2019-06-01T09:14:48Z</time>
      </trkpt>
      <trkpt lat="44.92558" lon="5.44586">
        <ele>1193.683</ele>
        <time>2019-06-01T09:14:58Z</time>
      </trkpt>
      <trkpt lat="44.92557" lon="5.44589">
        <ele>1195.339</ele>
        <time>2019-06-01T09:15:08Z</time>
      </trkpt>
      <trkpt lat="44.92551" lon="5.44594">
        <ele>1196.642</ele>
        <time>2019-06-01T09:15:19Z</time>
      </trkpt>
      <trkpt lat="44.92542" lon="5.44597">
        <ele>1197.946</ele>
        <time>2019-06-01T09:15:30Z</time>
      </trkpt>
      <trkpt lat="44.92536" lon="5.44599">
        <ele>1199.21</ele>
        <time>2019-06-01T09:15:40Z</time>
      </trkpt>
      <trkpt lat="44.92539" lon="5.44604">
        <ele>1201.729</ele>
        <time>2019-06-01T09:15:51Z</time>
      </trkpt>
      <trkpt lat="44.9254" lon="5.44608">
        <ele>1204.097</ele>
        <time>2019-06-01T09:16:02Z</time>
      </trkpt>
      <trkpt lat="44.92546" lon="5.44609">
        <ele>1207.215</ele>
        <time>2019-06-01T09:16:12Z</time>
      </trkpt>
      <trkpt lat="44.92537" lon="5.44611">
        <ele>1210.529</ele>
        <time>2019-06-01T09:16:22Z</time>
      </trkpt>
      <trkpt lat="44.92531" lon="5.44608">
        <ele>1213.744</ele>
        <time>2019-06-01T09:16:32Z</time>
      </trkpt>
      <trkpt lat="44.92526" lon="5.4461">
        <ele>1215.485</ele>
        <time>2019-06-01T09:16:43Z</time>
      </trkpt>
      <trkpt lat="44.92526" lon="5.44618">
        <ele>1217.413</ele>
        <time>2019-06-01T09:16:54Z</time>
      </trkpt>
      <trkpt lat="44.92531" lon="5.44625">
        <ele>1220.584</ele>
        <time>2019-06-01T09:17:05Z</time>
      </trkpt>
      <trkpt lat="44.92534" lon="5.44634">
        <ele>1224.095</ele>
        <time>2019-06-01T09:17:16Z</time>
      </trkpt>
      <trkpt lat="44.9254" lon="5.44635">
        <ele>1226.828</ele>
        <time>2019-06-01T09:17:27Z</time>
      </trkpt>
      <trkpt lat="44.92548" lon="5.44635">
        <ele>1229.442</ele>
        <time>2019-06-01T09:17:38Z</time>
      </trkpt>
      <trkpt lat="44.92553" lon="5.44643">
        <ele>1231.576</ele>
        <time>2019-06-01T09:17:49Z</time>
      </trkpt>
      <trkpt lat="44.92555" lon="5.44646">
        <ele>1232.98</ele>
        <time>2019-06-01T09:17:59Z</time>
      </trkpt>
      <trkpt lat="44.92553" lon="5.4465">
        <ele>1234.512</ele>
        <time>2019-06-01T09:18:10Z</time>
      </trkpt>
      <trkpt lat="44.9255" lon="5.44653">
        <ele>1235.351</ele>
        <time>2019-06-01T09:18:21Z</time>
      </trkpt>
      <trkpt lat="44.92548" lon="5.44657">
        <ele>1236.073</ele>
        <time>2019-06-01T09:18:31Z</time>
      </trkpt>
      <trkpt lat="44.92547" lon="5.44653">
        <ele>1236.972</ele>
        <time>2019-06-01T09:18:42Z</time>
      </trkpt>
      <trkpt lat="44.92547" lon="5.44651">
        <ele>1237.739</ele>
        <time>2019-06-01T09:18:53Z</time>
      </trkpt>
      <trkpt lat="44.92544" lon="5.44655">
        <ele>1239.91</ele>
        <time>2019-06-01T09:19:04Z</time>
      </trkpt>
      <trkpt lat="44.92544" lon="5.44653">
        <ele>1242.342</ele>
        <time>2019-06-01T09:19:18Z</time>
      </trkpt>
      <trkpt lat="44.9255" lon="5.44643">
        <ele>1242.263</ele>
        <time>2019-06-01T09:19:29Z</time>
      </trkpt>
      <trkpt lat="44.92548" lon="5.44645">
        <ele>1242.696</ele>
        <time>2019-06-01T09:19:40Z</time>
      </trkpt>
      <trkpt lat="44.92551" lon="5.44645">
        <ele>1243.135</ele>
        <time>2019-06-01T09:19:51Z</time>
      </trkpt>
      <trkpt lat="44.92552" lon="5.44643">
        <ele>1243.363</ele>
        <time>2019-06-01T09:20:02Z</time>
      </trkpt>
      <trkpt lat="44.92553" lon="5.44647">
        <ele>1243.972</ele>
        <time>2019-06-01T09:20:13Z</time>
      </trkpt>
      <trkpt lat="44.92549" lon="5.44649">
        <ele>1244.639</ele>
        <time>2019-06-01T09:20:24Z</time>
      </trkpt>
      <trkpt lat="44.92549" lon="5.4465">
        <ele>1245.276</ele>
        <time>2019-06-01T09:20:34Z</time>
      </trkpt>
      <trkpt lat="44.92549" lon="5.4465">
        <ele>1246.664</ele>
        <time>2019-06-01T09:20:46Z</time>
      </trkpt>
      <trkpt lat="44.92549" lon="5.4465">
        <ele>1247.772</ele>
        <time>2019-06-01T09:20:56Z</time>
      </trkpt>
      <trkpt lat="44.92549" lon="5.44649">
        <ele>1247.874</ele>
        <time>2019-06-01T09:21:07Z</time>
      </trkpt>
      <trkpt lat="44.92549" lon="5.44644">
        <ele>1248.045</ele>
        <time>2019-06-01T09:21:18Z</time>
      </trkpt>
      <trkpt lat="44.9255" lon="5.4464">
        <ele>1248.265</ele>
        <time>2019-06-01T09:21:29Z</time>
      </trkpt>
      <trkpt lat="44.92549" lon="5.44629">
        <ele>1248.555</ele>
        <time>2019-06-01T09:21:39Z</time>
      </trkpt>
      <trkpt lat="44.9255" lon="5.44629">
        <ele>1248.704</ele>
        <time>2019-06-01T09:21:49Z</time>
      </trkpt>
      <trkpt lat="44.92554" lon="5.44635">
        <ele>1249.651</ele>
        <time>2019-06-01T09:22:00Z</time>
      </trkpt>
      <trkpt lat="44.92553" lon="5.4464">
        <ele>1250.297</ele>
        <time>2019-06-01T09:22:11Z</time>
      </trkpt>
      <trkpt lat="44.92552" lon="5.44644">
        <ele>1250.701</ele>
        <time>2019-06-01T09:22:22Z</time>
      </trkpt>
      <trkpt lat="44.92552" lon="5.44644">
        <ele>1250.858</ele>
        <time>2019-06-01T09:22:33Z</time>
      </trkpt>
      <trkpt lat="44.92552" lon="5.44645">
        <ele>1251.007</ele>
        <time>2019-06-01T09:22:44Z</time>
      </trkpt>
      <trkpt lat="44.92551" lon="5.44645">
        <ele>1251.121</ele>
        <time>2019-06-01T09:22:54Z</time>
      </trkpt>
      <trkpt lat="44.9255" lon="5.44646">
        <ele>1251.231</ele>
        <time>2019-06-01T09:23:05Z</time>
      </trkpt>
      <trkpt lat="44.9255" lon="5.44646">
        <ele>1251.346</ele>
        <time>2019-06-01T09:23:16Z</time>
      </trkpt>
      <trkpt lat="44.92549" lon="5.44647">
        <ele>1251.434</ele>
        <time>2019-06-01T09:23:27Z</time>
      </trkpt>
      <trkpt lat="44.92548" lon="5.44647">
        <ele>1251.542</ele>
        <time>2019-06-01T09:23:37Z</time>
      </trkpt>
      <trkpt lat="44.92548" lon="5.44647">
        <ele>1251.641</ele>
        <time>2019-06-01T09:23:48Z</time>
      </trkpt>
      <trkpt lat="44.92547" lon="5.44647">
        <ele>1251.728</ele>
        <time>2019-06-01T09:23:59Z</time>
      </trkpt>
      <trkpt lat="44.92547" lon="5.44647">
        <ele>1251.808</ele>
        <time>2019-06-01T09:24:10Z</time>
      </trkpt>
      <trkpt lat="44.92547" lon="5.44647">
        <ele>1251.879</ele>
        <time>2019-06-01T09:24:20Z</time>
      </trkpt>
      <trkpt lat="44.92547" lon="5.44647">
        <ele>1251.964</ele>
        <time>2019-06-01T09:24:31Z</time>
      </trkpt>
      <trkpt lat="44.92546" lon="5.44647">
        <ele>1252.033</ele>
        <time>2019-06-01T09:24:41Z</time>
      </trkpt>
      <trkpt lat="44.92546" lon="5.44647">
        <ele>1252.096</ele>
        <time>2019-06-01T09:24:52Z</time>
      </trkpt>
      <trkpt lat="44.92546" lon="5.44647">
        <ele>1252.139</ele>
        <time>2019-06-01T09:25:03Z</time>
      </trkpt>
      <trkpt lat="44.92546" lon="5.44647">
        <ele>1252.168</ele>
        <time>2019-06-01T09:25:13Z</time>
      </trkpt>
      <trkpt lat="44.92546" lon="5.44646">
        <ele>1252.221</ele>
        <time>2019-06-01T09:25:24Z</time>
      </trkpt>
      <trkpt lat="44.92546" lon="5.44646">
        <ele>1252.269</ele>
        <time>2019-06-01T09:25:35Z</time>
      </trkpt>
      <trkpt lat="44.92546" lon="5.44647">
        <ele>1252.328</ele>
        <time>2019-06-01T09:25:46Z</time>
      </trkpt>
      <trkpt lat="44.92546" lon="5.44648">
        <ele>1252.366</ele>
        <time>2019-06-01T09:25:57Z</time>
      </trkpt>
      <trkpt lat="44.92546" lon="5.44648">
        <ele>1252.409</ele>
        <time>2019-06-01T09:26:08Z</time>
      </trkpt>
      <trkpt lat="44.92545" lon="5.4465">
        <ele>1252.537</ele>
        <time>2019-06-01T09:26:19Z</time>
      </trkpt>
      <trkpt lat="44.92545" lon="5.44656">
        <ele>1252.779</ele>
        <time>2019-06-01T09:26:30Z</time>
      </trkpt>
      <trkpt lat="44.92549" lon="5.44658">
        <ele>1252.872</ele>
        <time>2019-06-01T09:26:41Z</time>
      </trkpt>
      <trkpt lat="44.92556" lon="5.44664">
        <ele>1253.085</ele>
        <time>2019-06-01T09:26:52Z</time>
      </trkpt>
      <trkpt lat="44.92563" lon="5.44668">
        <ele>1253.464</ele>
        <time>2019-06-01T09:27:03Z</time>
      </trkpt>
      <trkpt lat="44.92566" lon="5.4467">
        <ele>1254.178</ele>
        <time>2019-06-01T09:27:14Z</time>
      </trkpt>
      <trkpt lat="44.92564" lon="5.44674">
        <ele>1254.82</ele>
        <time>2019-06-01T09:27:25Z</time>
      </trkpt>
      <trkpt lat="44.92559" lon="5.44678">
        <ele>1255.347</ele>
        <time>2019-06-01T09:27:36Z</time>
      </trkpt>
      <trkpt lat="44.92556" lon="5.4468">
        <ele>1255.303</ele>
        <time>2019-06-01T09:27:46Z</time>
      </trkpt>
      <trkpt lat="44.92549" lon="5.44686">
        <ele>1255.738</ele>
        <time>2019-06-01T09:27:57Z</time>
      </trkpt>
      <trkpt lat="44.92546" lon="5.44688">
        <ele>1256.313</ele>
        <time>2019-06-01T09:28:08Z</time>
      </trkpt>
      <trkpt lat="44.92544" lon="5.44691">
        <ele>1256.822</ele>
        <time>2019-06-01T09:28:18Z</time>
      </trkpt>
      <trkpt lat="44.92542" lon="5.44691">
        <ele>1257.8</ele>
        <time>2019-06-01T09:28:29Z</time>
      </trkpt>
      <trkpt lat="44.92538" lon="5.44693">
        <ele>1258.563</ele>
        <time>2019-06-01T09:28:40Z</time>
      </trkpt>
      <trkpt lat="44.92536" lon="5.447">
        <ele>1259.403</ele>
        <time>2019-06-01T09:28:51Z</time>
      </trkpt>
      <trkpt lat="44.92536" lon="5.44712">
        <ele>1261.304</ele>
        <time>2019-06-01T09:29:01Z</time>
      </trkpt>
      <trkpt lat="44.92539" lon="5.4472">
        <ele>1264.126</ele>
        <time>2019-06-01T09:29:12Z</time>
      </trkpt>
      <trkpt lat="44.92535" lon="5.44726">
        <ele>1266.653</ele>
        <time>2019-06-01T09:29:22Z</time>
      </trkpt>
      <trkpt lat="44.92534" lon="5.44731">
        <ele>1267.561</ele>
        <time>2019-06-01T09:29:33Z</time>
      </trkpt>
      <trkpt lat="44.92533" lon="5.44736">
        <ele>1268.497</ele>
        <time>2019-06-01T09:29:44Z</time>
      </trkpt>
      <trkpt lat="44.92537" lon="5.44744">
        <ele>1269.396</ele>
        <time>2019-06-01T09:29:54Z</time>
      </trkpt>
      <trkpt lat="44.9254" lon="5.44751">
        <ele>1270.02</ele>
        <time>2019-06-01T09:30:05Z</time>
      </trkpt>
      <trkpt lat="44.92537" lon="5.4476">
        <ele>1270.032</ele>
        <time>2019-06-01T09:30:16Z</time>
      </trkpt>
      <trkpt lat="44.92534" lon="5.44771">
        <ele>1269.646</ele>
        <time>2019-06-01T09:30:27Z</time>
      </trkpt>
      <trkpt lat="44.92533" lon="5.44779">
        <ele>1268.634</ele>
        <time>2019-06-01T09:30:37Z</time>
      </trkpt>
      <trkpt lat="44.92522" lon="5.44804">
        <ele>1269.145</ele>
        <time>2019-06-01T09:30:48Z</time>
      </trkpt>
      <trkpt lat="44.92515" lon="5.44816">
        <ele>1272.121</ele>
        <time>2019-06-01T09:30:59Z</time>
      </trkpt>
      <trkpt lat="44.9251" lon="5.44833">
        <ele>1274.594</ele>
        <time>2019-06-01T09:31:10Z</time>
      </trkpt>
      <trkpt lat="44.92502" lon="5.44846">
        <ele>1275.623</ele>
        <time>2019-06-01T09:31:20Z</time>
      </trkpt>
      <trkpt lat="44.92493" lon="5.44855">
        <ele>1277.936</ele>
        <time>2019-06-01T09:31:31Z</time>
      </trkpt>
      <trkpt lat="44.92481" lon="5.4486">
        <ele>1279.341</ele>
        <time>2019-06-01T09:31:41Z</time>
      </trkpt>
      <trkpt lat="44.92466" lon="5.44864">
        <ele>1280.211</ele>
        <time>2019-06-01T09:31:52Z</time>
      </trkpt>
      <trkpt lat="44.92453" lon="5.44854">
        <ele>1281.994</ele>
        <time>2019-06-01T09:32:03Z</time>
      </trkpt>
      <trkpt lat="44.92439" lon="5.44851">
        <ele>1285.275</ele>
        <time>2019-06-01T09:32:14Z</time>
      </trkpt>
      <trkpt lat="44.92435" lon="5.44844">
        <ele>1288.281</ele>
        <time>2019-06-01T09:32:25Z</time>
      </trkpt>
      <trkpt lat="44.92428" lon="5.44831">
        <ele>1291.962</ele>
        <time>2019-06-01T09:32:36Z</time>
      </trkpt>
      <trkpt lat="44.92418" lon="5.44816">
        <ele>1295.057</ele>
        <time>2019-06-01T09:32:47Z</time>
      </trkpt>
      <trkpt lat="44.92412" lon="5.44806">
        <ele>1297.598</ele>
        <time>2019-06-01T09:32:57Z</time>
      </trkpt>
      <trkpt lat="44.92404" lon="5.44794">
        <ele>1299.745</ele>
        <time>2019-06-01T09:33:07Z</time>
      </trkpt>
      <trkpt lat="44.92392" lon="5.44791">
        <ele>1301.706</ele>
        <time>2019-06-01T09:33:18Z</time>
      </trkpt>
      <trkpt lat="44.92378" lon="5.44796">
        <ele>1302.629</ele>
        <time>2019-06-01T09:33:29Z</time>
      </trkpt>
      <trkpt lat="44.92367" lon="5.44801">
        <ele>1302.758</ele>
        <time>2019-06-01T09:33:40Z</time>
      </trkpt>
      <trkpt lat="44.92356" lon="5.44808">
        <ele>1303.066</ele>
        <time>2019-06-01T09:33:51Z</time>
      </trkpt>
      <trkpt lat="44.92346" lon="5.44816">
        <ele>1302.526</ele>
        <time>2019-06-01T09:34:01Z</time>
      </trkpt>
      <trkpt lat="44.92334" lon="5.44812">
        <ele>1301.686</ele>
        <time>2019-06-01T09:34:12Z</time>
      </trkpt>
      <trkpt lat="44.92327" lon="5.44805">
        <ele>1301.564</ele>
        <time>2019-06-01T09:34:23Z</time>
      </trkpt>
      <trkpt lat="44.92323" lon="5.44791">
        <ele>1302.415</ele>
        <time>2019-06-01T09:34:34Z</time>
      </trkpt>
      <trkpt lat="44.92324" lon="5.44768">
        <ele>1304.536</ele>
        <time>2019-06-01T09:34:45Z</time>
      </trkpt>
      <trkpt lat="44.92327" lon="5.44752">
        <ele>1307.328</ele>
        <time>2019-06-01T09:34:56Z</time>
      </trkpt>
      <trkpt lat="44.92326" lon="5.44737">
        <ele>1310.636</ele>
        <time>2019-06-01T09:35:07Z</time>
      </trkpt>
      <trkpt lat="44.92319" lon="5.44724">
        <ele>1313.644</ele>
        <time>2019-06-01T09:35:18Z</time>
      </trkpt>
      <trkpt lat="44.92306" lon="5.44707">
        <ele>1315.991</ele>
        <time>2019-06-01T09:35:29Z</time>
      </trkpt>
      <trkpt lat="44.92298" lon="5.4471">
        <ele>1318.337</ele>
        <time>2019-06-01T09:35:40Z</time>
      </trkpt>
      <trkpt lat="44.92301" lon="5.44731">
        <ele>1320.313</ele>
        <time>2019-06-01T09:35:50Z</time>
      </trkpt>
      <trkpt lat="44.92309" lon="5.4474">
        <ele>1322.001</ele>
        <time>2019-06-01T09:36:01Z</time>
      </trkpt>
      <trkpt lat="44.92316" lon="5.44753">
        <ele>1322.654</ele>
        <time>2019-06-01T09:36:11Z</time>
      </trkpt>
      <trkpt lat="44.92318" lon="5.44769">
        <ele>1323.12</ele>
        <time>2019-06-01T09:36:22Z</time>
      </trkpt>
      <trkpt lat="44.92315" lon="5.44782">
        <ele>1323.076</ele>
        <time>2019-06-01T09:36:32Z</time>
      </trkpt>
      <trkpt lat="44.92313" lon="5.44798">
        <ele>1322.55</ele>
        <time>2019-06-01T09:36:43Z</time>
      </trkpt>
      <trkpt lat="44.92311" lon="5.44815">
        <ele>1322.004</ele>
        <time>2019-06-01T09:36:54Z</time>
      </trkpt>
      <trkpt lat="44.92309" lon="5.44834">
        <ele>1322.678</ele>
        <time>2019-06-01T09:37:05Z</time>
      </trkpt>
      <trkpt lat="44.92315" lon="5.44851">
        <ele>1324.236</ele>
        <time>2019-06-01T09:37:15Z</time>
      </trkpt>
      <trkpt lat="44.92312" lon="5.4487">
        <ele>1326.672</ele>
        <time>2019-06-01T09:37:26Z</time>
      </trkpt>
      <trkpt lat="44.92315" lon="5.44886">
        <ele>1328.493</ele>
        <time>2019-06-01T09:37:37Z</time>
      </trkpt>
      <trkpt lat="44.92318" lon="5.44897">
        <ele>1329.45</ele>
        <time>2019-06-01T09:37:47Z</time>
      </trkpt>
      <trkpt lat="44.92318" lon="5.44895">
        <ele>1329.686</ele>
        <time>2019-06-01T09:37:58Z</time>
      </trkpt>
      <trkpt lat="44.92318" lon="5.44894">
        <ele>1329.95</ele>
        <time>2019-06-01T09:38:09Z</time>
      </trkpt>
      <trkpt lat="44.92318" lon="5.44893">
        <ele>1330.18</ele>
        <time>2019-06-01T09:38:20Z</time>
      </trkpt>
      <trkpt lat="44.92318" lon="5.44893">
        <ele>1330.317</ele>
        <time>2019-06-01T09:38:30Z</time>
      </trkpt>
      <trkpt lat="44.92319" lon="5.44893">
        <ele>1330.417</ele>
        <time>2019-06-01T09:38:41Z</time>
      </trkpt>
      <trkpt lat="44.92319" lon="5.44898">
        <ele>1331.535</ele>
        <time>2019-06-01T09:38:52Z</time>
      </trkpt>
      <trkpt lat="44.92322" lon="5.44917">
        <ele>1332.67</ele>
        <time>2019-06-01T09:39:03Z</time>
      </trkpt>
      <trkpt lat="44.92321" lon="5.44931">
        <ele>1332.353</ele>
        <time>2019-06-01T09:39:14Z</time>
      </trkpt>
      <trkpt lat="44.92322" lon="5.44948">
        <ele>1332.336</ele>
        <time>2019-06-01T09:39:24Z</time>
      </trkpt>
      <trkpt lat="44.92318" lon="5.44964">
        <ele>1334.021</ele>
        <time>2019-06-01T09:39:34Z</time>
      </trkpt>
      <trkpt lat="44.92309" lon="5.44982">
        <ele>1337.341</ele>
        <time>2019-06-01T09:39:45Z</time>
      </trkpt>
      <trkpt lat="44.92304" lon="5.44997">
        <ele>1340.086</ele>
        <time>2019-06-01T09:39:56Z</time>
      </trkpt>
      <trkpt lat="44.92297" lon="5.45014">
        <ele>1341.481</ele>
        <time>2019-06-01T09:40:06Z</time>
      </trkpt>
      <trkpt lat="44.92289" lon="5.4503">
        <ele>1342.482</ele>
        <time>2019-06-01T09:40:16Z</time>
      </trkpt>
      <trkpt lat="44.92279" lon="5.45043">
        <ele>1344.28</ele>
        <time>2019-06-01T09:40:27Z</time>
      </trkpt>
      <trkpt lat="44.92271" lon="5.45059">
        <ele>1345.688</ele>
        <time>2019-06-01T09:40:37Z</time>
      </trkpt>
      <trkpt lat="44.92267" lon="5.4508">
        <ele>1346.639</ele>
        <time>2019-06-01T09:40:48Z</time>
      </trkpt>
      <trkpt lat="44.92266" lon="5.45103">
        <ele>1346.244</ele>
        <time>2019-06-01T09:40:59Z</time>
      </trkpt>
      <trkpt lat="44.92265" lon="5.4512">
        <ele>1345.479</ele>
        <time>2019-06-01T09:41:09Z</time>
      </trkpt>
      <trkpt lat="44.92267" lon="5.45141">
        <ele>1345.042</ele>
        <time>2019-06-01T09:41:19Z</time>
      </trkpt>
      <trkpt lat="44.92263" lon="5.45157">
        <ele>1343.893</ele>
        <time>2019-06-01T09:41:30Z</time>
      </trkpt>
      <trkpt lat="44.92256" lon="5.45175">
        <ele>1342.75</ele>
        <time>2019-06-01T09:41:41Z</time>
      </trkpt>
      <trkpt lat="44.92247" lon="5.45194">
        <ele>1342.659</ele>
        <time>2019-06-01T09:41:52Z</time>
      </trkpt>
      <trkpt lat="44.92245" lon="5.45212">
        <ele>1342.48</ele>
        <time>2019-06-01T09:42:02Z</time>
      </trkpt>
      <trkpt lat="44.92241" lon="5.45234">
        <ele>1342.039</ele>
        <time>2019-06-01T09:42:12Z</time>
      </trkpt>
      <trkpt lat="44.92236" lon="5.45249">
        <ele>1342.244</ele>
        <time>2019-06-01T09:42:23Z</time>
      </trkpt>
      <trkpt lat="44.92232" lon="5.45264">
        <ele>1342.296</ele>
        <time>2019-06-01T09:42:33Z</time>
      </trkpt>
      <trkpt lat="44.92229" lon="5.45276">
        <ele>1341.641</ele>
        <time>2019-06-01T09:42:43Z</time>
      </trkpt>
      <trkpt lat="44.92227" lon="5.45298">
        <ele>1340.665</ele>
        <time>2019-06-01T09:42:54Z</time>
      </trkpt>
      <trkpt lat="44.92228" lon="5.45318">
        <ele>1339.422</ele>
        <time>2019-06-01T09:43:05Z</time>
      </trkpt>
      <trkpt lat="44.92231" lon="5.45333">
        <ele>1337.514</ele>
        <time>2019-06-01T09:43:16Z</time>
      </trkpt>
      <trkpt lat="44.92235" lon="5.45351">
        <ele>1336.009</ele>
        <time>2019-06-01T09:43:27Z</time>
      </trkpt>
      <trkpt lat="44.92238" lon="5.4536">
        <ele>1334.521</ele>
        <time>2019-06-01T09:43:37Z</time>
      </trkpt>
      <trkpt lat="44.92238" lon="5.45375">
        <ele>1334.098</ele>
        <time>2019-06-01T09:43:47Z</time>
      </trkpt>
      <trkpt lat="44.92241" lon="5.45379">
        <ele>1334.574</ele>
        <time>2019-06-01T09:43:58Z</time>
      </trkpt>
      <trkpt lat="44.92246" lon="5.45392">
        <ele>1335.914</ele>
        <time>2019-06-01T09:44:08Z</time>
      </trkpt>
      <trkpt lat="44.9225" lon="5.45404">
        <ele>1337.415</ele>
        <time>2019-06-01T09:44:18Z</time>
      </trkpt>
      <trkpt lat="44.92257" lon="5.45419">
        <ele>1338.389</ele>
        <time>2019-06-01T09:44:29Z</time>
      </trkpt>
      <trkpt lat="44.92259" lon="5.45439">
        <ele>1338.581</ele>
        <time>2019-06-01T09:44:39Z</time>
      </trkpt>
      <trkpt lat="44.92258" lon="5.45456">
        <ele>1339.411</ele>
        <time>2019-06-01T09:44:50Z</time>
      </trkpt>
      <trkpt lat="44.92256" lon="5.45473">
        <ele>1340.34</ele>
        <time>2019-06-01T09:45:01Z</time>
      </trkpt>
      <trkpt lat="44.92254" lon="5.45492">
        <ele>1341.161</ele>
        <time>2019-06-01T09:45:11Z</time>
      </trkpt>
      <trkpt lat="44.92254" lon="5.4551">
        <ele>1342.679</ele>
        <time>2019-06-01T09:45:22Z</time>
      </trkpt>
      <trkpt lat="44.92254" lon="5.45526">
        <ele>1344.391</ele>
        <time>2019-06-01T09:45:32Z</time>
      </trkpt>
      <trkpt lat="44.92252" lon="5.4554">
        <ele>1346.67</ele>
        <time>2019-06-01T09:45:43Z</time>
      </trkpt>
      <trkpt lat="44.92248" lon="5.45554">
        <ele>1348.483</ele>
        <time>2019-06-01T09:45:53Z</time>
      </trkpt>
      <trkpt lat="44.92242" lon="5.45561">
        <ele>1350.408</ele>
        <time>2019-06-01T09:46:03Z</time>
      </trkpt>
      <trkpt lat="44.92232" lon="5.45575">
        <ele>1352.613</ele>
        <time>2019-06-01T09:46:14Z</time>
      </trkpt>
      <trkpt lat="44.92226" lon="5.45572">
        <ele>1354.18</ele>
        <time>2019-06-01T09:46:25Z</time>
      </trkpt>
      <trkpt lat="44.9222" lon="5.45561">
        <ele>1355.601</ele>
        <time>2019-06-01T09:46:35Z</time>
      </trkpt>
      <trkpt lat="44.92215" lon="5.4555">
        <ele>1357.235</ele>
        <time>2019-06-01T09:46:45Z</time>
      </trkpt>
      <trkpt lat="44.92209" lon="5.45532">
        <ele>1359.382</ele>
        <time>2019-06-01T09:46:56Z</time>
      </trkpt>
      <trkpt lat="44.92203" lon="5.4552">
        <ele>1361.423</ele>
        <time>2019-06-01T09:47:07Z</time>
      </trkpt>
      <trkpt lat="44.92196" lon="5.45508">
        <ele>1362.71</ele>
        <time>2019-06-01T09:47:17Z</time>
      </trkpt>
      <trkpt lat="44.92195" lon="5.4551">
        <ele>1363.776</ele>
        <time>2019-06-01T09:47:28Z</time>
      </trkpt>
      <trkpt lat="44.92196" lon="5.45516">
        <ele>1364.343</ele>
        <time>2019-06-01T09:47:39Z</time>
      </trkpt>
      <trkpt lat="44.92195" lon="5.45515">
        <ele>1364.943</ele>
        <time>2019-06-01T09:47:49Z</time>
      </trkpt>
      <trkpt lat="44.92194" lon="5.45513">
        <ele>1365.129</ele>
        <time>2019-06-01T09:47:59Z</time>
      </trkpt>
      <trkpt lat="44.92193" lon="5.45511">
        <ele>1365.387</ele>
        <time>2019-06-01T09:48:09Z</time>
      </trkpt>
      <trkpt lat="44.92199" lon="5.45519">
        <ele>1365.89</ele>
        <time>2019-06-01T09:48:20Z</time>
      </trkpt>
      <trkpt lat="44.92205" lon="5.45533">
        <ele>1366.507</ele>
        <time>2019-06-01T09:48:31Z</time>
      </trkpt>
      <trkpt lat="44.92208" lon="5.45539">
        <ele>1367.053</ele>
        <time>2019-06-01T09:48:41Z</time>
      </trkpt>
      <trkpt lat="44.92208" lon="5.45541">
        <ele>1367.668</ele>
        <time>2019-06-01T09:48:52Z</time>
      </trkpt>
      <trkpt lat="44.92209" lon="5.45554">
        <ele>1368.696</ele>
        <time>2019-06-01T09:49:03Z</time>
      </trkpt>
      <trkpt lat="44.92208" lon="5.45572">
        <ele>1368.805</ele>
        <time>2019-06-01T09:49:14Z</time>
      </trkpt>
      <trkpt lat="44.92209" lon="5.45584">
        <ele>1368.885</ele>
        <time>2019-06-01T09:49:24Z</time>
      </trkpt>
      <trkpt lat="44.9221" lon="5.45603">
        <ele>1370.643</ele>
        <time>2019-06-01T09:49:35Z</time>
      </trkpt>
      <trkpt lat="44.92215" lon="5.45606">
        <ele>1373.854</ele>
        <time>2019-06-01T09:49:46Z</time>
      </trkpt>
      <trkpt lat="44.92219" lon="5.45609">
        <ele>1375.432</ele>
        <time>2019-06-01T09:49:56Z</time>
      </trkpt>
      <trkpt lat="44.92223" lon="5.45613">
        <ele>1376.548</ele>
        <time>2019-06-01T09:50:07Z</time>
      </trkpt>
      <trkpt lat="44.92228" lon="5.45617">
        <ele>1378.525</ele>
        <time>2019-06-01T09:50:17Z</time>
      </trkpt>
      <trkpt lat="44.9223" lon="5.45622">
        <ele>1379.739</ele>
        <time>2019-06-01T09:50:28Z</time>
      </trkpt>
      <trkpt lat="44.92234" lon="5.45635">
        <ele>1380.086</ele>
        <time>2019-06-01T09:50:39Z</time>
      </trkpt>
      <trkpt lat="44.92237" lon="5.45644">
        <ele>1379.975</ele>
        <time>2019-06-01T09:50:49Z</time>
      </trkpt>
      <trkpt lat="44.92244" lon="5.4565">
        <ele>1380.082</ele>
        <time>2019-06-01T09:51:00Z</time>
      </trkpt>
      <trkpt lat="44.92249" lon="5.45657">
        <ele>1379.971</ele>
        <time>2019-06-01T09:51:10Z</time>
      </trkpt>
      <trkpt lat="44.92252" lon="5.45661">
        <ele>1380.251</ele>
        <time>2019-06-01T09:51:20Z</time>
      </trkpt>
      <trkpt lat="44.92254" lon="5.45664">
        <ele>1380.985</ele>
        <time>2019-06-01T09:51:31Z</time>
      </trkpt>
      <trkpt lat="44.92254" lon="5.45671">
        <ele>1382.682</ele>
        <time>2019-06-01T09:51:41Z</time>
      </trkpt>
      <trkpt lat="44.92254" lon="5.45677">
        <ele>1384.193</ele>
        <time>2019-06-01T09:51:52Z</time>
      </trkpt>
      <trkpt lat="44.92256" lon="5.45683">
        <ele>1385.296</ele>
        <time>2019-06-01T09:52:02Z</time>
      </trkpt>
      <trkpt lat="44.92257" lon="5.45691">
        <ele>1386.503</ele>
        <time>2019-06-01T09:52:13Z</time>
      </trkpt>
      <trkpt lat="44.9226" lon="5.45693">
        <ele>1388.021</ele>
        <time>2019-06-01T09:52:23Z</time>
      </trkpt>
      <trkpt lat="44.92263" lon="5.45702">
        <ele>1389.596</ele>
        <time>2019-06-01T09:52:34Z</time>
      </trkpt>
      <trkpt lat="44.92265" lon="5.45706">
        <ele>1391.115</ele>
        <time>2019-06-01T09:52:44Z</time>
      </trkpt>
      <trkpt lat="44.92274" lon="5.4571">
        <ele>1392.181</ele>
        <time>2019-06-01T09:52:54Z</time>
      </trkpt>
      <trkpt lat="44.92283" lon="5.45716">
        <ele>1394.036</ele>
        <time>2019-06-01T09:53:05Z</time>
      </trkpt>
      <trkpt lat="44.92287" lon="5.45723">
        <ele>1395.113</ele>
        <time>2019-06-01T09:53:16Z</time>
      </trkpt>
      <trkpt lat="44.92295" lon="5.45732">
        <ele>1396.211</ele>
        <time>2019-06-01T09:53:27Z</time>
      </trkpt>
      <trkpt lat="44.92304" lon="5.45743">
        <ele>1397.786</ele>
        <time>2019-06-01T09:53:38Z</time>
      </trkpt>
      <trkpt lat="44.92314" lon="5.45744">
        <ele>1400.454</ele>
        <time>2019-06-01T09:53:49Z</time>
      </trkpt>
      <trkpt lat="44.92322" lon="5.4575">
        <ele>1403.56</ele>
        <time>2019-06-01T09:53:59Z</time>
      </trkpt>
      <trkpt lat="44.92334" lon="5.45756">
        <ele>1407.013</ele>
        <time>2019-06-01T09:54:10Z</time>
      </trkpt>
      <trkpt lat="44.92341" lon="5.45762">
        <ele>1409.191</ele>
        <time>2019-06-01T09:54:20Z</time>
      </trkpt>
      <trkpt lat="44.92347" lon="5.45779">
        <ele>1411.344</ele>
        <time>2019-06-01T09:54:31Z</time>
      </trkpt>
      <trkpt lat="44.92352" lon="5.45788">
        <ele>1413.486</ele>
        <time>2019-06-01T09:54:42Z</time>
      </trkpt>
      <trkpt lat="44.9236" lon="5.45792">
        <ele>1414.374</ele>
        <time>2019-06-01T09:54:53Z</time>
      </trkpt>
      <trkpt lat="44.92369" lon="5.4579">
        <ele>1413.765</ele>
        <time>2019-06-01T09:55:03Z</time>
      </trkpt>
      <trkpt lat="44.92379" lon="5.45778">
        <ele>1413.388</ele>
        <time>2019-06-01T09:55:13Z</time>
      </trkpt>
      <trkpt lat="44.92389" lon="5.45773">
        <ele>1414.107</ele>
        <time>2019-06-01T09:55:24Z</time>
      </trkpt>
      <trkpt lat="44.92398" lon="5.45769">
        <ele>1415.001</ele>
        <time>2019-06-01T09:55:34Z</time>
      </trkpt>
      <trkpt lat="44.9241" lon="5.45771">
        <ele>1416.156</ele>
        <time>2019-06-01T09:55:45Z</time>
      </trkpt>
      <trkpt lat="44.9242" lon="5.45766">
        <ele>1417.347</ele>
        <time>2019-06-01T09:55:55Z</time>
      </trkpt>
      <trkpt lat="44.92432" lon="5.45763">
        <ele>1418.401</ele>
        <time>2019-06-01T09:56:05Z</time>
      </trkpt>
      <trkpt lat="44.92435" lon="5.45759">
        <ele>1419.013</ele>
        <time>2019-06-01T09:56:15Z</time>
      </trkpt>
      <trkpt lat="44.92441" lon="5.4576">
        <ele>1420.32</ele>
        <time>2019-06-01T09:56:26Z</time>
      </trkpt>
      <trkpt lat="44.92451" lon="5.45748">
        <ele>1421.652</ele>
        <time>2019-06-01T09:56:36Z</time>
      </trkpt>
      <trkpt lat="44.92456" lon="5.45737">
        <ele>1422.716</ele>
        <time>2019-06-01T09:56:46Z</time>
      </trkpt>
      <trkpt lat="44.92461" lon="5.45733">
        <ele>1422.929</ele>
        <time>2019-06-01T09:56:57Z</time>
      </trkpt>
      <trkpt lat="44.92464" lon="5.45724">
        <ele>1421.727</ele>
        <time>2019-06-01T09:57:07Z</time>
      </trkpt>
      <trkpt lat="44.9247" lon="5.45719">
        <ele>1418.945</ele>
        <time>2019-06-01T09:57:17Z</time>
      </trkpt>
      <trkpt lat="44.92483" lon="5.4571">
        <ele>1417.64</ele>
        <time>2019-06-01T09:57:28Z</time>
      </trkpt>
      <trkpt lat="44.92484" lon="5.45711">
        <ele>1418.145</ele>
        <time>2019-06-01T09:57:39Z</time>
      </trkpt>
      <trkpt lat="44.92484" lon="5.45712">
        <ele>1418.829</ele>
        <time>2019-06-01T09:57:49Z</time>
      </trkpt>
      <trkpt lat="44.92482" lon="5.45711">
        <ele>1418.852</ele>
        <time>2019-06-01T09:57:59Z</time>
      </trkpt>
      <trkpt lat="44.92482" lon="5.45709">
        <ele>1418.638</ele>
        <time>2019-06-01T09:58:09Z</time>
      </trkpt>
      <trkpt lat="44.92482" lon="5.45708">
        <ele>1418.38</ele>
        <time>2019-06-01T09:58:20Z</time>
      </trkpt>
      <trkpt lat="44.92482" lon="5.45708">
        <ele>1418.241</ele>
        <time>2019-06-01T09:58:30Z</time>
      </trkpt>
      <trkpt lat="44.92482" lon="5.45708">
        <ele>1418.194</ele>
        <time>2019-06-01T09:58:41Z</time>
      </trkpt>
      <trkpt lat="44.92481" lon="5.45709">
        <ele>1418.177</ele>
        <time>2019-06-01T09:58:52Z</time>
      </trkpt>
      <trkpt lat="44.92484" lon="5.45707">
        <ele>1418.632</ele>
        <time>2019-06-01T09:59:02Z</time>
      </trkpt>
      <trkpt lat="44.92498" lon="5.45694">
        <ele>1420.092</ele>
        <time>2019-06-01T09:59:13Z</time>
      </trkpt>
      <trkpt lat="44.92512" lon="5.4569">
        <ele>1421.865</ele>
        <time>2019-06-01T09:59:24Z</time>
      </trkpt>
      <trkpt lat="44.9252" lon="5.45703">
        <ele>1423.105</ele>
        <time>2019-06-01T09:59:34Z</time>
      </trkpt>
      <trkpt lat="44.92527" lon="5.4572">
        <ele>1423.751</ele>
        <time>2019-06-01T09:59:45Z</time>
      </trkpt>
      <trkpt lat="44.92537" lon="5.45732">
        <ele>1423.871</ele>
        <time>2019-06-01T09:59:56Z</time>
      </trkpt>
      <trkpt lat="44.92543" lon="5.45746">
        <ele>1424.39</ele>
        <time>2019-06-01T10:00:07Z</time>
      </trkpt>
      <trkpt lat="44.92549" lon="5.45754">
        <ele>1423.912</ele>
        <time>2019-06-01T10:00:17Z</time>
      </trkpt>
      <trkpt lat="44.92555" lon="5.45767">
        <ele>1422.82</ele>
        <time>2019-06-01T10:00:28Z</time>
      </trkpt>
      <trkpt lat="44.92556" lon="5.45765">
        <ele>1422.955</ele>
        <time>2019-06-01T10:00:39Z</time>
      </trkpt>
      <trkpt lat="44.92556" lon="5.45765">
        <ele>1424.658</ele>
        <time>2019-06-01T10:00:49Z</time>
      </trkpt>
      <trkpt lat="44.92554" lon="5.45776">
        <ele>1425.029</ele>
        <time>2019-06-01T10:00:59Z</time>
      </trkpt>
      <trkpt lat="44.92549" lon="5.45796">
        <ele>1422.275</ele>
        <time>2019-06-01T10:01:10Z</time>
      </trkpt>
      <trkpt lat="44.92552" lon="5.45811">
        <ele>1419.583</ele>
        <time>2019-06-01T10:01:21Z</time>
      </trkpt>
      <trkpt lat="44.9256" lon="5.45825">
        <ele>1418.231</ele>
        <time>2019-06-01T10:01:32Z</time>
      </trkpt>
      <trkpt lat="44.9257" lon="5.4584">
        <ele>1416.674</ele>
        <time>2019-06-01T10:01:42Z</time>
      </trkpt>
      <trkpt lat="44.92579" lon="5.4585">
        <ele>1414.998</ele>
        <time>2019-06-01T10:01:52Z</time>
      </trkpt>
      <trkpt lat="44.92584" lon="5.45865">
        <ele>1412.537</ele>
        <time>2019-06-01T10:02:03Z</time>
      </trkpt>
      <trkpt lat="44.9258" lon="5.45875">
        <ele>1410.684</ele>
        <time>2019-06-01T10:02:14Z</time>
      </trkpt>
      <trkpt lat="44.92584" lon="5.45888">
        <ele>1408.229</ele>
        <time>2019-06-01T10:02:24Z</time>
      </trkpt>
      <trkpt lat="44.92589" lon="5.45898">
        <ele>1405.704</ele>
        <time>2019-06-01T10:02:35Z</time>
      </trkpt>
      <trkpt lat="44.92593" lon="5.45909">
        <ele>1406.313</ele>
        <time>2019-06-01T10:02:45Z</time>
      </trkpt>
      <trkpt lat="44.926" lon="5.45916">
        <ele>1408.343</ele>
        <time>2019-06-01T10:02:56Z</time>
      </trkpt>
      <trkpt lat="44.92611" lon="5.45926">
        <ele>1410.97</ele>
        <time>2019-06-01T10:03:07Z</time>
      </trkpt>
      <trkpt lat="44.92619" lon="5.45938">
        <ele>1413.65</ele>
        <time>2019-06-01T10:03:17Z</time>
      </trkpt>
      <trkpt lat="44.92621" lon="5.4595">
        <ele>1415.146</ele>
        <time>2019-06-01T10:03:27Z</time>
      </trkpt>
      <trkpt lat="44.92624" lon="5.45962">
        <ele>1416.241</ele>
        <time>2019-06-01T10:03:38Z</time>
      </trkpt>
      <trkpt lat="44.92632" lon="5.45973">
        <ele>1417.132</ele>
        <time>2019-06-01T10:03:48Z</time>
      </trkpt>
      <trkpt lat="44.92633" lon="5.45986">
        <ele>1417.804</ele>
        <time>2019-06-01T10:03:58Z</time>
      </trkpt>
      <trkpt lat="44.92633" lon="5.45997">
        <ele>1416.464</ele>
        <time>2019-06-01T10:04:09Z</time>
      </trkpt>
      <trkpt lat="44.92627" lon="5.46011">
        <ele>1414.758</ele>
        <time>2019-06-01T10:04:19Z</time>
      </trkpt>
      <trkpt lat="44.92622" lon="5.46025">
        <ele>1413.082</ele>
        <time>2019-06-01T10:04:29Z</time>
      </trkpt>
      <trkpt lat="44.92617" lon="5.46046">
        <ele>1410.233</ele>
        <time>2019-06-01T10:04:40Z</time>
      </trkpt>
      <trkpt lat="44.92617" lon="5.46064">
        <ele>1408.879</ele>
        <time>2019-06-01T10:04:51Z</time>
      </trkpt>
      <trkpt lat="44.92621" lon="5.4608">
        <ele>1407.18</ele>
        <time>2019-06-01T10:05:02Z</time>
      </trkpt>
      <trkpt lat="44.92626" lon="5.46102">
        <ele>1405.638</ele>
        <time>2019-06-01T10:05:13Z</time>
      </trkpt>
      <trkpt lat="44.92626" lon="5.46123">
        <ele>1405.135</ele>
        <time>2019-06-01T10:05:24Z</time>
      </trkpt>
      <trkpt lat="44.92626" lon="5.46143">
        <ele>1405.401</ele>
        <time>2019-06-01T10:05:35Z</time>
      </trkpt>
      <trkpt lat="44.92623" lon="5.46148">
        <ele>1405.078</ele>
        <time>2019-06-01T10:05:46Z</time>
      </trkpt>
      <trkpt lat="44.92621" lon="5.46163">
        <ele>1404.92</ele>
        <time>2019-06-01T10:05:57Z</time>
      </trkpt>
      <trkpt lat="44.92622" lon="5.46175">
        <ele>1405.688</ele>
        <time>2019-06-01T10:06:07Z</time>
      </trkpt>
      <trkpt lat="44.92622" lon="5.46182">
        <ele>1406.423</ele>
        <time>2019-06-01T10:06:17Z</time>
      </trkpt>
      <trkpt lat="44.92616" lon="5.46196">
        <ele>1408.246</ele>
        <time>2019-06-01T10:06:28Z</time>
      </trkpt>
      <trkpt lat="44.9261" lon="5.46203">
        <ele>1408.362</ele>
        <time>2019-06-01T10:06:39Z</time>
      </trkpt>
      <trkpt lat="44.92598" lon="5.46213">
        <ele>1406.957</ele>
        <time>2019-06-01T10:06:50Z</time>
      </trkpt>
      <trkpt lat="44.92583" lon="5.46238">
        <ele>1412.536</ele>
        <time>2019-06-01T10:07:01Z</time>
      </trkpt>
      <trkpt lat="44.92584" lon="5.46239">
        <ele>1415.375</ele>
        <time>2019-06-01T10:07:11Z</time>
      </trkpt>
      <trkpt lat="44.92583" lon="5.46244">
        <ele>1418.792</ele>
        <time>2019-06-01T10:07:22Z</time>
      </trkpt>
      <trkpt lat="44.92582" lon="5.46259">
        <ele>1424.083</ele>
        <time>2019-06-01T10:07:33Z</time>
      </trkpt>
      <trkpt lat="44.92584" lon="5.46255">
        <ele>1425.214</ele>
        <time>2019-06-01T10:07:44Z</time>
      </trkpt>
      <trkpt lat="44.92593" lon="5.46235">
        <ele>1428.587</ele>
        <time>2019-06-01T10:07:54Z</time>
      </trkpt>
      <trkpt lat="44.92602" lon="5.46227">
        <ele>1432.462</ele>
        <time>2019-06-01T10:08:05Z</time>
      </trkpt>
      <trkpt lat="44.92607" lon="5.46215">
        <ele>1435.814</ele>
        <time>2019-06-01T10:08:15Z</time>
      </trkpt>
      <trkpt lat="44.92613" lon="5.46201">
        <ele>1438.494</ele>
        <time>2019-06-01T10:08:26Z</time>
      </trkpt>
      <trkpt lat="44.92618" lon="5.46193">
        <ele>1440.054</ele>
        <time>2019-06-01T10:08:36Z</time>
      </trkpt>
      <trkpt lat="44.92629" lon="5.46183">
        <ele>1441.674</ele>
        <time>2019-06-01T10:08:47Z</time>
      </trkpt>
      <trkpt lat="44.92639" lon="5.46174">
        <ele>1443.073</ele>
        <time>2019-06-01T10:08:58Z</time>
      </trkpt>
      <trkpt lat="44.92651" lon="5.46163">
        <ele>1444.063</ele>
        <time>2019-06-01T10:09:08Z</time>
      </trkpt>
      <trkpt lat="44.92656" lon="5.46151">
        <ele>1446.807</ele>
        <time>2019-06-01T10:09:19Z</time>
      </trkpt>
      <trkpt lat="44.92654" lon="5.4613">
        <ele>1447.743</ele>
        <time>2019-06-01T10:09:30Z</time>
      </trkpt>
      <trkpt lat="44.92649" lon="5.46115">
        <ele>1448.457</ele>
        <time>2019-06-01T10:09:41Z</time>
      </trkpt>
      <trkpt lat="44.92645" lon="5.46103">
        <ele>1448.285</ele>
        <time>2019-06-01T10:09:52Z</time>
      </trkpt>
      <trkpt lat="44.92644" lon="5.46087">
        <ele>1447.831</ele>
        <time>2019-06-01T10:10:02Z</time>
      </trkpt>
      <trkpt lat="44.92648" lon="5.46072">
        <ele>1447.419</ele>
        <time>2019-06-01T10:10:12Z</time>
      </trkpt>
      <trkpt lat="44.92655" lon="5.4608">
        <ele>1447.119</ele>
        <time>2019-06-01T10:10:22Z</time>
      </trkpt>
      <trkpt lat="44.92657" lon="5.46094">
        <ele>1446.752</ele>
        <time>2019-06-01T10:10:33Z</time>
      </trkpt>
      <trkpt lat="44.92661" lon="5.4611">
        <ele>1447.171</ele>
        <time>2019-06-01T10:10:44Z</time>
      </trkpt>
      <trkpt lat="44.92669" lon="5.46118">
        <ele>1447.952</ele>
        <time>2019-06-01T10:10:54Z</time>
      </trkpt>
      <trkpt lat="44.9268" lon="5.46128">
        <ele>1449.192</ele>
        <time>2019-06-01T10:11:05Z</time>
      </trkpt>
      <trkpt lat="44.92688" lon="5.46135">
        <ele>1450.685</ele>
        <time>2019-06-01T10:11:15Z</time>
      </trkpt>
      <trkpt lat="44.927" lon="5.4614">
        <ele>1452.006</ele>
        <time>2019-06-01T10:11:26Z</time>
      </trkpt>
      <trkpt lat="44.92707" lon="5.46148">
        <ele>1453.269</ele>
        <time>2019-06-01T10:11:36Z</time>
      </trkpt>
      <trkpt lat="44.92719" lon="5.46153">
        <ele>1454.362</ele>
        <time>2019-06-01T10:11:46Z</time>
      </trkpt>
      <trkpt lat="44.92727" lon="5.46166">
        <ele>1455.425</ele>
        <time>2019-06-01T10:11:57Z</time>
      </trkpt>
      <trkpt lat="44.92731" lon="5.46182">
        <ele>1456.352</ele>
        <time>2019-06-01T10:12:07Z</time>
      </trkpt>
      <trkpt lat="44.92731" lon="5.46196">
        <ele>1457.201</ele>
        <time>2019-06-01T10:12:18Z</time>
      </trkpt>
      <trkpt lat="44.92735" lon="5.4621">
        <ele>1458.508</ele>
        <time>2019-06-01T10:12:28Z</time>
      </trkpt>
      <trkpt lat="44.92738" lon="5.46221">
        <ele>1459.428</ele>
        <time>2019-06-01T10:12:38Z</time>
      </trkpt>
      <trkpt lat="44.92743" lon="5.46233">
        <ele>1459.985</ele>
        <time>2019-06-01T10:12:48Z</time>
      </trkpt>
      <trkpt lat="44.92754" lon="5.46245">
        <ele>1460.993</ele>
        <time>2019-06-01T10:12:59Z</time>
      </trkpt>
      <trkpt lat="44.92762" lon="5.46253">
        <ele>1462.191</ele>
        <time>2019-06-01T10:13:10Z</time>
      </trkpt>
      <trkpt lat="44.92765" lon="5.46246">
        <ele>1462.852</ele>
        <time>2019-06-01T10:13:20Z</time>
      </trkpt>
      <trkpt lat="44.92781" lon="5.46236">
        <ele>1463.644</ele>
        <time>2019-06-01T10:13:31Z</time>
      </trkpt>
      <trkpt lat="44.92787" lon="5.46227">
        <ele>1464.377</ele>
        <time>2019-06-01T10:13:41Z</time>
      </trkpt>
      <trkpt lat="44.92787" lon="5.46226">
        <ele>1464.604</ele>
        <time>2019-06-01T10:13:52Z</time>
      </trkpt>
      <trkpt lat="44.9278" lon="5.46241">
        <ele>1465.098</ele>
        <time>2019-06-01T10:14:03Z</time>
      </trkpt>
      <trkpt lat="44.92775" lon="5.4624">
        <ele>1465.505</ele>
        <time>2019-06-01T10:14:13Z</time>
      </trkpt>
      <trkpt lat="44.92773" lon="5.46247">
        <ele>1466.586</ele>
        <time>2019-06-01T10:14:24Z</time>
      </trkpt>
      <trkpt lat="44.92766" lon="5.4626">
        <ele>1467.627</ele>
        <time>2019-06-01T10:14:35Z</time>
      </trkpt>
      <trkpt lat="44.92766" lon="5.46283">
        <ele>1467.759</ele>
        <time>2019-06-01T10:14:46Z</time>
      </trkpt>
      <trkpt lat="44.92772" lon="5.46291">
        <ele>1469.429</ele>
        <time>2019-06-01T10:14:57Z</time>
      </trkpt>
      <trkpt lat="44.92781" lon="5.46303">
        <ele>1469.609</ele>
        <time>2019-06-01T10:15:07Z</time>
      </trkpt>
      <trkpt lat="44.92785" lon="5.46316">
        <ele>1469.903</ele>
        <time>2019-06-01T10:15:18Z</time>
      </trkpt>
      <trkpt lat="44.92781" lon="5.46331">
        <ele>1471.372</ele>
        <time>2019-06-01T10:15:28Z</time>
      </trkpt>
      <trkpt lat="44.92785" lon="5.46342">
        <ele>1472.496</ele>
        <time>2019-06-01T10:15:38Z</time>
      </trkpt>
      <trkpt lat="44.9279" lon="5.46353">
        <ele>1473.248</ele>
        <time>2019-06-01T10:15:49Z</time>
      </trkpt>
      <trkpt lat="44.92799" lon="5.46363">
        <ele>1473.843</ele>
        <time>2019-06-01T10:16:00Z</time>
      </trkpt>
      <trkpt lat="44.92801" lon="5.46378">
        <ele>1474.035</ele>
        <time>2019-06-01T10:16:11Z</time>
      </trkpt>
      <trkpt lat="44.92802" lon="5.46392">
        <ele>1474.006</ele>
        <time>2019-06-01T10:16:21Z</time>
      </trkpt>
      <trkpt lat="44.92801" lon="5.46405">
        <ele>1474.563</ele>
        <time>2019-06-01T10:16:32Z</time>
      </trkpt>
      <trkpt lat="44.92802" lon="5.46419">
        <ele>1474.743</ele>
        <time>2019-06-01T10:16:43Z</time>
      </trkpt>
      <trkpt lat="44.92797" lon="5.46434">
        <ele>1475.124</ele>
        <time>2019-06-01T10:16:53Z</time>
      </trkpt>
      <trkpt lat="44.92797" lon="5.4645">
        <ele>1475.505</ele>
        <time>2019-06-01T10:17:04Z</time>
      </trkpt>
      <trkpt lat="44.92799" lon="5.46471">
        <ele>1475.117</ele>
        <time>2019-06-01T10:17:14Z</time>
      </trkpt>
      <trkpt lat="44.92797" lon="5.46487">
        <ele>1475.433</ele>
        <time>2019-06-01T10:17:25Z</time>
      </trkpt>
      <trkpt lat="44.92792" lon="5.46502">
        <ele>1476.02</ele>
        <time>2019-06-01T10:17:36Z</time>
      </trkpt>
      <trkpt lat="44.92789" lon="5.4652">
        <ele>1476.248</ele>
        <time>2019-06-01T10:17:47Z</time>
      </trkpt>
      <trkpt lat="44.92788" lon="5.46533">
        <ele>1476.496</ele>
        <time>2019-06-01T10:17:57Z</time>
      </trkpt>
      <trkpt lat="44.92792" lon="5.46557">
        <ele>1476.594</ele>
        <time>2019-06-01T10:18:08Z</time>
      </trkpt>
      <trkpt lat="44.92799" lon="5.46571">
        <ele>1476.95</ele>
        <time>2019-06-01T10:18:19Z</time>
      </trkpt>
      <trkpt lat="44.92797" lon="5.4658">
        <ele>1477.069</ele>
        <time>2019-06-01T10:18:29Z</time>
      </trkpt>
      <trkpt lat="44.92802" lon="5.46594">
        <ele>1476.392</ele>
        <time>2019-06-01T10:18:39Z</time>
      </trkpt>
      <trkpt lat="44.92812" lon="5.4661">
        <ele>1475.697</ele>
        <time>2019-06-01T10:18:50Z</time>
      </trkpt>
      <trkpt lat="44.92813" lon="5.46611">
        <ele>1475.598</ele>
        <time>2019-06-01T10:19:01Z</time>
      </trkpt>
      <trkpt lat="44.92815" lon="5.46616">
        <ele>1475.372</ele>
        <time>2019-06-01T10:19:11Z</time>
      </trkpt>
      <trkpt lat="44.92823" lon="5.4663">
        <ele>1474.806</ele>
        <time>2019-06-01T10:19:22Z</time>
      </trkpt>
      <trkpt lat="44.92831" lon="5.46642">
        <ele>1474.298</ele>
        <time>2019-06-01T10:19:33Z</time>
      </trkpt>
      <trkpt lat="44.92829" lon="5.46655">
        <ele>1473.564</ele>
        <time>2019-06-01T10:19:44Z</time>
      </trkpt>
      <trkpt lat="44.92826" lon="5.46673">
        <ele>1473.068</ele>
        <time>2019-06-01T10:19:55Z</time>
      </trkpt>
      <trkpt lat="44.92833" lon="5.46689">
        <ele>1472.986</ele>
        <time>2019-06-01T10:20:06Z</time>
      </trkpt>
      <trkpt lat="44.92842" lon="5.46696">
        <ele>1472.958</ele>
        <time>2019-06-01T10:20:16Z</time>
      </trkpt>
      <trkpt lat="44.92851" lon="5.46701">
        <ele>1472.571</ele>
        <time>2019-06-01T10:20:26Z</time>
      </trkpt>
      <trkpt lat="44.92855" lon="5.46701">
        <ele>1471.29</ele>
        <time>2019-06-01T10:20:37Z</time>
      </trkpt>
      <trkpt lat="44.92869" lon="5.46702">
        <ele>1470.077</ele>
        <time>2019-06-01T10:20:48Z</time>
      </trkpt>
      <trkpt lat="44.92882" lon="5.46702">
        <ele>1469.571</ele>
        <time>2019-06-01T10:20:59Z</time>
      </trkpt>
      <trkpt lat="44.92892" lon="5.46707">
        <ele>1469.672</ele>
        <time>2019-06-01T10:21:10Z</time>
      </trkpt>
      <trkpt lat="44.92902" lon="5.4672">
        <ele>1469.658</ele>
        <time>2019-06-01T10:21:20Z</time>
      </trkpt>
      <trkpt lat="44.92915" lon="5.46728">
        <ele>1469.575</ele>
        <time>2019-06-01T10:21:31Z</time>
      </trkpt>
      <trkpt lat="44.9292" lon="5.46733">
        <ele>1469.543</ele>
        <time>2019-06-01T10:21:42Z</time>
      </trkpt>
      <trkpt lat="44.92919" lon="5.46733">
        <ele>1469.685</ele>
        <time>2019-06-01T10:21:52Z</time>
      </trkpt>
      <trkpt lat="44.9292" lon="5.46726">
        <ele>1470.268</ele>
        <time>2019-06-01T10:22:02Z</time>
      </trkpt>
      <trkpt lat="44.92929" lon="5.46726">
        <ele>1471.23</ele>
        <time>2019-06-01T10:22:13Z</time>
      </trkpt>
      <trkpt lat="44.92935" lon="5.46717">
        <ele>1471.574</ele>
        <time>2019-06-01T10:22:24Z</time>
      </trkpt>
      <trkpt lat="44.9294" lon="5.46713">
        <ele>1471.419</ele>
        <time>2019-06-01T10:22:34Z</time>
      </trkpt>
      <trkpt lat="44.92945" lon="5.4671">
        <ele>1471.422</ele>
        <time>2019-06-01T10:22:44Z</time>
      </trkpt>
      <trkpt lat="44.92943" lon="5.46724">
        <ele>1471.715</ele>
        <time>2019-06-01T10:22:55Z</time>
      </trkpt>
      <trkpt lat="44.92925" lon="5.46735">
        <ele>1472.681</ele>
        <time>2019-06-01T10:23:06Z</time>
      </trkpt>
      <trkpt lat="44.92917" lon="5.46733">
        <ele>1473.3</ele>
        <time>2019-06-01T10:23:17Z</time>
      </trkpt>
      <trkpt lat="44.92909" lon="5.46736">
        <ele>1473.614</ele>
        <time>2019-06-01T10:23:27Z</time>
      </trkpt>
      <trkpt lat="44.929" lon="5.46737">
        <ele>1473.252</ele>
        <time>2019-06-01T10:23:38Z</time>
      </trkpt>
      <trkpt lat="44.92882" lon="5.46735">
        <ele>1473.194</ele>
        <time>2019-06-01T10:23:49Z</time>
      </trkpt>
      <trkpt lat="44.9287" lon="5.46739">
        <ele>1472.246</ele>
        <time>2019-06-01T10:24:00Z</time>
      </trkpt>
      <trkpt lat="44.9286" lon="5.46745">
        <ele>1472.841</ele>
        <time>2019-06-01T10:24:10Z</time>
      </trkpt>
      <trkpt lat="44.92853" lon="5.46754">
        <ele>1472.462</ele>
        <time>2019-06-01T10:24:21Z</time>
      </trkpt>
      <trkpt lat="44.92852" lon="5.46774">
        <ele>1472.124</ele>
        <time>2019-06-01T10:24:32Z</time>
      </trkpt>
      <trkpt lat="44.92849" lon="5.46783">
        <ele>1471.293</ele>
        <time>2019-06-01T10:24:43Z</time>
      </trkpt>
      <trkpt lat="44.92846" lon="5.46799">
        <ele>1470.613</ele>
        <time>2019-06-01T10:24:53Z</time>
      </trkpt>
      <trkpt lat="44.92847" lon="5.46808">
        <ele>1470.374</ele>
        <time>2019-06-01T10:25:04Z</time>
      </trkpt>
      <trkpt lat="44.92848" lon="5.46821">
        <ele>1470.576</ele>
        <time>2019-06-01T10:25:14Z</time>
      </trkpt>
      <trkpt lat="44.92845" lon="5.46834">
        <ele>1470.816</ele>
        <time>2019-06-01T10:25:25Z</time>
      </trkpt>
      <trkpt lat="44.92841" lon="5.46847">
        <ele>1471.334</ele>
        <time>2019-06-01T10:25:35Z</time>
      </trkpt>
      <trkpt lat="44.92837" lon="5.46861">
        <ele>1471.712</ele>
        <time>2019-06-01T10:25:46Z</time>
      </trkpt>
      <trkpt lat="44.92832" lon="5.46864">
        <ele>1472.107</ele>
        <time>2019-06-01T10:25:57Z</time>
      </trkpt>
      <trkpt lat="44.92827" lon="5.46875">
        <ele>1472.669</ele>
        <time>2019-06-01T10:26:07Z</time>
      </trkpt>
      <trkpt lat="44.92823" lon="5.4689">
        <ele>1474.082</ele>
        <time>2019-06-01T10:26:18Z</time>
      </trkpt>
      <trkpt lat="44.9282" lon="5.46906">
        <ele>1475.633</ele>
        <time>2019-06-01T10:26:29Z</time>
      </trkpt>
      <trkpt lat="44.9281" lon="5.46907">
        <ele>1476.579</ele>
        <time>2019-06-01T10:26:40Z</time>
      </trkpt>
      <trkpt lat="44.92798" lon="5.46918">
        <ele>1477.445</ele>
        <time>2019-06-01T10:26:50Z</time>
      </trkpt>
      <trkpt lat="44.92795" lon="5.46924">
        <ele>1478.649</ele>
        <time>2019-06-01T10:27:01Z</time>
      </trkpt>
      <trkpt lat="44.92789" lon="5.46931">
        <ele>1479.31</ele>
        <time>2019-06-01T10:27:12Z</time>
      </trkpt>
      <trkpt lat="44.92785" lon="5.46948">
        <ele>1479.417</ele>
        <time>2019-06-01T10:27:22Z</time>
      </trkpt>
      <trkpt lat="44.9278" lon="5.46964">
        <ele>1479.356</ele>
        <time>2019-06-01T10:27:33Z</time>
      </trkpt>
      <trkpt lat="44.92777" lon="5.46977">
        <ele>1479.861</ele>
        <time>2019-06-01T10:27:44Z</time>
      </trkpt>
      <trkpt lat="44.92774" lon="5.46988">
        <ele>1481.241</ele>
        <time>2019-06-01T10:27:55Z</time>
      </trkpt>
      <trkpt lat="44.92768" lon="5.46998">
        <ele>1482.534</ele>
        <time>2019-06-01T10:28:06Z</time>
      </trkpt>
      <trkpt lat="44.92756" lon="5.47003">
        <ele>1483.044</ele>
        <time>2019-06-01T10:28:17Z</time>
      </trkpt>
      <trkpt lat="44.92739" lon="5.47006">
        <ele>1482.914</ele>
        <time>2019-06-01T10:28:28Z</time>
      </trkpt>
      <trkpt lat="44.92733" lon="5.47015">
        <ele>1482.716</ele>
        <time>2019-06-01T10:28:39Z</time>
      </trkpt>
      <trkpt lat="44.92725" lon="5.47025">
        <ele>1482.729</ele>
        <time>2019-06-01T10:28:50Z</time>
      </trkpt>
      <trkpt lat="44.92716" lon="5.47036">
        <ele>1482.846</ele>
        <time>2019-06-01T10:29:00Z</time>
      </trkpt>
      <trkpt lat="44.9271" lon="5.47051">
        <ele>1483.254</ele>
        <time>2019-06-01T10:29:11Z</time>
      </trkpt>
      <trkpt lat="44.92708" lon="5.4706">
        <ele>1483.772</ele>
        <time>2019-06-01T10:29:21Z</time>
      </trkpt>
      <trkpt lat="44.92706" lon="5.47075">
        <ele>1485.035</ele>
        <time>2019-06-01T10:29:32Z</time>
      </trkpt>
      <trkpt lat="44.92702" lon="5.47086">
        <ele>1485.624</ele>
        <time>2019-06-01T10:29:43Z</time>
      </trkpt>
      <trkpt lat="44.92698" lon="5.47103">
        <ele>1485.8</ele>
        <time>2019-06-01T10:29:54Z</time>
      </trkpt>
      <trkpt lat="44.9269" lon="5.47118">
        <ele>1486.257</ele>
        <time>2019-06-01T10:30:05Z</time>
      </trkpt>
      <trkpt lat="44.92683" lon="5.4713">
        <ele>1486.705</ele>
        <time>2019-06-01T10:30:15Z</time>
      </trkpt>
      <trkpt lat="44.92678" lon="5.47142">
        <ele>1487.288</ele>
        <time>2019-06-01T10:30:26Z</time>
      </trkpt>
      <trkpt lat="44.92675" lon="5.47158">
        <ele>1487.714</ele>
        <time>2019-06-01T10:30:36Z</time>
      </trkpt>
      <trkpt lat="44.92679" lon="5.4718">
        <ele>1489.083</ele>
        <time>2019-06-01T10:30:47Z</time>
      </trkpt>
      <trkpt lat="44.92679" lon="5.47192">
        <ele>1491.469</ele>
        <time>2019-06-01T10:30:58Z</time>
      </trkpt>
      <trkpt lat="44.92678" lon="5.47208">
        <ele>1494.868</ele>
        <time>2019-06-01T10:31:09Z</time>
      </trkpt>
      <trkpt lat="44.92678" lon="5.47224">
        <ele>1498.158</ele>
        <time>2019-06-01T10:31:19Z</time>
      </trkpt>
      <trkpt lat="44.92675" lon="5.47231">
        <ele>1501.311</ele>
        <time>2019-06-01T10:31:29Z</time>
      </trkpt>
      <trkpt lat="44.92678" lon="5.47242">
        <ele>1504.095</ele>
        <time>2019-06-01T10:31:40Z</time>
      </trkpt>
      <trkpt lat="44.92679" lon="5.47257">
        <ele>1507.026</ele>
        <time>2019-06-01T10:31:51Z</time>
      </trkpt>
      <trkpt lat="44.92673" lon="5.47269">
        <ele>1508.269</ele>
        <time>2019-06-01T10:32:01Z</time>
      </trkpt>
      <trkpt lat="44.92671" lon="5.47283">
        <ele>1508.571</ele>
        <time>2019-06-01T10:32:12Z</time>
      </trkpt>
      <trkpt lat="44.92681" lon="5.47294">
        <ele>1508.713</ele>
        <time>2019-06-01T10:32:22Z</time>
      </trkpt>
      <trkpt lat="44.92684" lon="5.4731">
        <ele>1508.829</ele>
        <time>2019-06-01T10:32:33Z</time>
      </trkpt>
      <trkpt lat="44.92689" lon="5.47324">
        <ele>1509.317</ele>
        <time>2019-06-01T10:32:43Z</time>
      </trkpt>
      <trkpt lat="44.92692" lon="5.47342">
        <ele>1510.034</ele>
        <time>2019-06-01T10:32:54Z</time>
      </trkpt>
      <trkpt lat="44.92692" lon="5.47355">
        <ele>1510.056</ele>
        <time>2019-06-01T10:33:05Z</time>
      </trkpt>
      <trkpt lat="44.92692" lon="5.47379">
        <ele>1509.847</ele>
        <time>2019-06-01T10:33:16Z</time>
      </trkpt>
      <trkpt lat="44.92694" lon="5.474">
        <ele>1509.601</ele>
        <time>2019-06-01T10:33:26Z</time>
      </trkpt>
      <trkpt lat="44.92696" lon="5.47413">
        <ele>1509.487</ele>
        <time>2019-06-01T10:33:36Z</time>
      </trkpt>
      <trkpt lat="44.92699" lon="5.47427">
        <ele>1509.592</ele>
        <time>2019-06-01T10:33:47Z</time>
      </trkpt>
      <trkpt lat="44.92701" lon="5.47438">
        <ele>1509.906</ele>
        <time>2019-06-01T10:33:57Z</time>
      </trkpt>
      <trkpt lat="44.92703" lon="5.4745">
        <ele>1510.111</ele>
        <time>2019-06-01T10:34:08Z</time>
      </trkpt>
      <trkpt lat="44.92707" lon="5.47467">
        <ele>1510.447</ele>
        <time>2019-06-01T10:34:19Z</time>
      </trkpt>
      <trkpt lat="44.92711" lon="5.47475">
        <ele>1510.08</ele>
        <time>2019-06-01T10:34:29Z</time>
      </trkpt>
      <trkpt lat="44.9271" lon="5.47492">
        <ele>1509.372</ele>
        <time>2019-06-01T10:34:40Z</time>
      </trkpt>
      <trkpt lat="44.92705" lon="5.47504">
        <ele>1508.562</ele>
        <time>2019-06-01T10:34:50Z</time>
      </trkpt>
      <trkpt lat="44.92705" lon="5.47506">
        <ele>1507.941</ele>
        <time>2019-06-01T10:35:00Z</time>
      </trkpt>
      <trkpt lat="44.92703" lon="5.47518">
        <ele>1507.099</ele>
        <time>2019-06-01T10:35:11Z</time>
      </trkpt>
      <trkpt lat="44.92703" lon="5.47529">
        <ele>1506.827</ele>
        <time>2019-06-01T10:35:21Z</time>
      </trkpt>
      <trkpt lat="44.927" lon="5.47543">
        <ele>1506.824</ele>
        <time>2019-06-01T10:35:32Z</time>
      </trkpt>
      <trkpt lat="44.92698" lon="5.47558">
        <ele>1506.647</ele>
        <time>2019-06-01T10:35:43Z</time>
      </trkpt>
      <trkpt lat="44.92687" lon="5.47565">
        <ele>1506.893</ele>
        <time>2019-06-01T10:35:53Z</time>
      </trkpt>
      <trkpt lat="44.92679" lon="5.47566">
        <ele>1507.065</ele>
        <time>2019-06-01T10:36:04Z</time>
      </trkpt>
      <trkpt lat="44.92669" lon="5.47569">
        <ele>1507.059</ele>
        <time>2019-06-01T10:36:14Z</time>
      </trkpt>
      <trkpt lat="44.92658" lon="5.47577">
        <ele>1506.557</ele>
        <time>2019-06-01T10:36:25Z</time>
      </trkpt>
      <trkpt lat="44.92658" lon="5.47593">
        <ele>1506.306</ele>
        <time>2019-06-01T10:36:36Z</time>
      </trkpt>
      <trkpt lat="44.92662" lon="5.47608">
        <ele>1506.598</ele>
        <time>2019-06-01T10:36:46Z</time>
      </trkpt>
      <trkpt lat="44.92665" lon="5.47623">
        <ele>1506.208</ele>
        <time>2019-06-01T10:36:57Z</time>
      </trkpt>
      <trkpt lat="44.92668" lon="5.47639">
        <ele>1506.006</ele>
        <time>2019-06-01T10:37:08Z</time>
      </trkpt>
      <trkpt lat="44.92668" lon="5.47654">
        <ele>1505.836</ele>
        <time>2019-06-01T10:37:18Z</time>
      </trkpt>
      <trkpt lat="44.92669" lon="5.47667">
        <ele>1505.644</ele>
        <time>2019-06-01T10:37:28Z</time>
      </trkpt>
      <trkpt lat="44.92669" lon="5.47681">
        <ele>1505.473</ele>
        <time>2019-06-01T10:37:38Z</time>
      </trkpt>
      <trkpt lat="44.92673" lon="5.47693">
        <ele>1505.325</ele>
        <time>2019-06-01T10:37:49Z</time>
      </trkpt>
      <trkpt lat="44.92673" lon="5.47708">
        <ele>1505.1</ele>
        <time>2019-06-01T10:37:59Z</time>
      </trkpt>
      <trkpt lat="44.9267" lon="5.47719">
        <ele>1505.148</ele>
        <time>2019-06-01T10:38:09Z</time>
      </trkpt>
      <trkpt lat="44.92671" lon="5.4772">
        <ele>1506.192</ele>
        <time>2019-06-01T10:38:20Z</time>
      </trkpt>
      <trkpt lat="44.92667" lon="5.47735">
        <ele>1507.999</ele>
        <time>2019-06-01T10:38:31Z</time>
      </trkpt>
      <trkpt lat="44.92658" lon="5.4775">
        <ele>1509.486</ele>
        <time>2019-06-01T10:38:42Z</time>
      </trkpt>
      <trkpt lat="44.92649" lon="5.47761">
        <ele>1510.721</ele>
        <time>2019-06-01T10:38:52Z</time>
      </trkpt>
      <trkpt lat="44.92648" lon="5.47764">
        <ele>1511.958</ele>
        <time>2019-06-01T10:39:03Z</time>
      </trkpt>
      <trkpt lat="44.92644" lon="5.47771">
        <ele>1512.635</ele>
        <time>2019-06-01T10:39:14Z</time>
      </trkpt>
      <trkpt lat="44.92635" lon="5.47787">
        <ele>1513.08</ele>
        <time>2019-06-01T10:39:24Z</time>
      </trkpt>
      <trkpt lat="44.92628" lon="5.47798">
        <ele>1513.953</ele>
        <time>2019-06-01T10:39:35Z</time>
      </trkpt>
      <trkpt lat="44.92619" lon="5.47809">
        <ele>1515.931</ele>
        <time>2019-06-01T10:39:45Z</time>
      </trkpt>
      <trkpt lat="44.92605" lon="5.47819">
        <ele>1517.044</ele>
        <time>2019-06-01T10:39:56Z</time>
      </trkpt>
      <trkpt lat="44.92592" lon="5.47833">
        <ele>1516.309</ele>
        <time>2019-06-01T10:40:07Z</time>
      </trkpt>
      <trkpt lat="44.92583" lon="5.47844">
        <ele>1515.235</ele>
        <time>2019-06-01T10:40:18Z</time>
      </trkpt>
      <trkpt lat="44.92576" lon="5.47851">
        <ele>1514.355</ele>
        <time>2019-06-01T10:40:28Z</time>
      </trkpt>
      <trkpt lat="44.92572" lon="5.4786">
        <ele>1513.854</ele>
        <time>2019-06-01T10:40:38Z</time>
      </trkpt>
      <trkpt lat="44.92565" lon="5.47871">
        <ele>1513.93</ele>
        <time>2019-06-01T10:40:49Z</time>
      </trkpt>
      <trkpt lat="44.92563" lon="5.47873">
        <ele>1513.539</ele>
        <time>2019-06-01T10:40:59Z</time>
      </trkpt>
      <trkpt lat="44.92553" lon="5.47886">
        <ele>1513.085</ele>
        <time>2019-06-01T10:41:10Z</time>
      </trkpt>
      <trkpt lat="44.92544" lon="5.47892">
        <ele>1513.087</ele>
        <time>2019-06-01T10:41:20Z</time>
      </trkpt>
      <trkpt lat="44.92526" lon="5.47901">
        <ele>1512.648</ele>
        <time>2019-06-01T10:41:31Z</time>
      </trkpt>
      <trkpt lat="44.92511" lon="5.47914">
        <ele>1511.323</ele>
        <time>2019-06-01T10:41:42Z</time>
      </trkpt>
      <trkpt lat="44.92505" lon="5.47927">
        <ele>1510.201</ele>
        <time>2019-06-01T10:41:53Z</time>
      </trkpt>
      <trkpt lat="44.92496" lon="5.47938">
        <ele>1509.264</ele>
        <time>2019-06-01T10:42:04Z</time>
      </trkpt>
      <trkpt lat="44.92488" lon="5.47948">
        <ele>1508.622</ele>
        <time>2019-06-01T10:42:14Z</time>
      </trkpt>
      <trkpt lat="44.92483" lon="5.47959">
        <ele>1508.015</ele>
        <time>2019-06-01T10:42:24Z</time>
      </trkpt>
      <trkpt lat="44.92473" lon="5.47969">
        <ele>1507.551</ele>
        <time>2019-06-01T10:42:35Z</time>
      </trkpt>
      <trkpt lat="44.92465" lon="5.47977">
        <ele>1506.863</ele>
        <time>2019-06-01T10:42:46Z</time>
      </trkpt>
      <trkpt lat="44.92459" lon="5.47986">
        <ele>1505.741</ele>
        <time>2019-06-01T10:42:56Z</time>
      </trkpt>
      <trkpt lat="44.92452" lon="5.48004">
        <ele>1503.897</ele>
        <time>2019-06-01T10:43:07Z</time>
      </trkpt>
      <trkpt lat="44.92448" lon="5.48017">
        <ele>1502.294</ele>
        <time>2019-06-01T10:43:17Z</time>
      </trkpt>
      <trkpt lat="44.92441" lon="5.48022">
        <ele>1501.025</ele>
        <time>2019-06-01T10:43:27Z</time>
      </trkpt>
      <trkpt lat="44.92438" lon="5.48019">
        <ele>1500.758</ele>
        <time>2019-06-01T10:43:38Z</time>
      </trkpt>
      <trkpt lat="44.92439" lon="5.48022">
        <ele>1500.118</ele>
        <time>2019-06-01T10:43:48Z</time>
      </trkpt>
      <trkpt lat="44.92442" lon="5.48027">
        <ele>1499.722</ele>
        <time>2019-06-01T10:43:59Z</time>
      </trkpt>
      <trkpt lat="44.92439" lon="5.48025">
        <ele>1499.657</ele>
        <time>2019-06-01T10:44:10Z</time>
      </trkpt>
      <trkpt lat="44.92438" lon="5.48029">
        <ele>1499.706</ele>
        <time>2019-06-01T10:44:20Z</time>
      </trkpt>
      <trkpt lat="44.92436" lon="5.48034">
        <ele>1500.163</ele>
        <time>2019-06-01T10:44:30Z</time>
      </trkpt>
      <trkpt lat="44.92428" lon="5.48041">
        <ele>1501.524</ele>
        <time>2019-06-01T10:44:40Z</time>
      </trkpt>
      <trkpt lat="44.92417" lon="5.48051">
        <ele>1502.065</ele>
        <time>2019-06-01T10:44:50Z</time>
      </trkpt>
      <trkpt lat="44.92404" lon="5.48062">
        <ele>1502.458</ele>
        <time>2019-06-01T10:45:01Z</time>
      </trkpt>
      <trkpt lat="44.92396" lon="5.48071">
        <ele>1502.954</ele>
        <time>2019-06-01T10:45:11Z</time>
      </trkpt>
      <trkpt lat="44.9239" lon="5.48081">
        <ele>1502.926</ele>
        <time>2019-06-01T10:45:21Z</time>
      </trkpt>
      <trkpt lat="44.9238" lon="5.48091">
        <ele>1502.349</ele>
        <time>2019-06-01T10:45:32Z</time>
      </trkpt>
      <trkpt lat="44.9237" lon="5.48097">
        <ele>1501.636</ele>
        <time>2019-06-01T10:45:42Z</time>
      </trkpt>
      <trkpt lat="44.92362" lon="5.48108">
        <ele>1500.765</ele>
        <time>2019-06-01T10:45:52Z</time>
      </trkpt>
      <trkpt lat="44.92348" lon="5.48115">
        <ele>1498.984</ele>
        <time>2019-06-01T10:46:03Z</time>
      </trkpt>
      <trkpt lat="44.92339" lon="5.48129">
        <ele>1497.566</ele>
        <time>2019-06-01T10:46:13Z</time>
      </trkpt>
      <trkpt lat="44.92332" lon="5.48131">
        <ele>1496.882</ele>
        <time>2019-06-01T10:46:23Z</time>
      </trkpt>
      <trkpt lat="44.92327" lon="5.48134">
        <ele>1497.716</ele>
        <time>2019-06-01T10:46:33Z</time>
      </trkpt>
      <trkpt lat="44.92327" lon="5.48135">
        <ele>1498.881</ele>
        <time>2019-06-01T10:46:44Z</time>
      </trkpt>
      <trkpt lat="44.92326" lon="5.48131">
        <ele>1499.474</ele>
        <time>2019-06-01T10:46:54Z</time>
      </trkpt>
      <trkpt lat="44.92325" lon="5.4813">
        <ele>1500.786</ele>
        <time>2019-06-01T10:47:05Z</time>
      </trkpt>
      <trkpt lat="44.92317" lon="5.48125">
        <ele>1502.206</ele>
        <time>2019-06-01T10:47:16Z</time>
      </trkpt>
      <trkpt lat="44.92307" lon="5.48118">
        <ele>1503.246</ele>
        <time>2019-06-01T10:47:26Z</time>
      </trkpt>
      <trkpt lat="44.92306" lon="5.48117">
        <ele>1503.427</ele>
        <time>2019-06-01T10:47:37Z</time>
      </trkpt>
      <trkpt lat="44.9231" lon="5.48122">
        <ele>1503.37</ele>
        <time>2019-06-01T10:47:48Z</time>
      </trkpt>
      <trkpt lat="44.92319" lon="5.48127">
        <ele>1503.358</ele>
        <time>2019-06-01T10:47:58Z</time>
      </trkpt>
      <trkpt lat="44.92329" lon="5.48134">
        <ele>1504.286</ele>
        <time>2019-06-01T10:48:09Z</time>
      </trkpt>
      <trkpt lat="44.92318" lon="5.48145">
        <ele>1505.106</ele>
        <time>2019-06-01T10:48:20Z</time>
      </trkpt>
      <trkpt lat="44.92311" lon="5.48157">
        <ele>1505.843</ele>
        <time>2019-06-01T10:48:31Z</time>
      </trkpt>
      <trkpt lat="44.923" lon="5.48171">
        <ele>1506.868</ele>
        <time>2019-06-01T10:48:41Z</time>
      </trkpt>
      <trkpt lat="44.92296" lon="5.48176">
        <ele>1507.432</ele>
        <time>2019-06-01T10:48:51Z</time>
      </trkpt>
      <trkpt lat="44.92295" lon="5.48171">
        <ele>1507.248</ele>
        <time>2019-06-01T10:49:02Z</time>
      </trkpt>
      <trkpt lat="44.92299" lon="5.48176">
        <ele>1506.549</ele>
        <time>2019-06-01T10:49:13Z</time>
      </trkpt>
      <trkpt lat="44.92301" lon="5.48185">
        <ele>1506.219</ele>
        <time>2019-06-01T10:49:24Z</time>
      </trkpt>
      <trkpt lat="44.92301" lon="5.48189">
        <ele>1506.176</ele>
        <time>2019-06-01T10:49:35Z</time>
      </trkpt>
      <trkpt lat="44.92301" lon="5.48192">
        <ele>1506.081</ele>
        <time>2019-06-01T10:49:45Z</time>
      </trkpt>
      <trkpt lat="44.92301" lon="5.48195">
        <ele>1505.862</ele>
        <time>2019-06-01T10:49:55Z</time>
      </trkpt>
      <trkpt lat="44.92303" lon="5.48204">
        <ele>1505.912</ele>
        <time>2019-06-01T10:50:06Z</time>
      </trkpt>
      <trkpt lat="44.92305" lon="5.48214">
        <ele>1506.178</ele>
        <time>2019-06-01T10:50:17Z</time>
      </trkpt>
      <trkpt lat="44.92305" lon="5.4822">
        <ele>1506.032</ele>
        <time>2019-06-01T10:50:27Z</time>
      </trkpt>
      <trkpt lat="44.92303" lon="5.48231">
        <ele>1506.425</ele>
        <time>2019-06-01T10:50:37Z</time>
      </trkpt>
      <trkpt lat="44.92302" lon="5.48241">
        <ele>1507.406</ele>
        <time>2019-06-01T10:50:48Z</time>
      </trkpt>
      <trkpt lat="44.923" lon="5.48249">
        <ele>1508.518</ele>
        <time>2019-06-01T10:50:59Z</time>
      </trkpt>
      <trkpt lat="44.92302" lon="5.48258">
        <ele>1509.922</ele>
        <time>2019-06-01T10:51:10Z</time>
      </trkpt>
      <trkpt lat="44.92304" lon="5.48272">
        <ele>1511.534</ele>
        <time>2019-06-01T10:51:20Z</time>
      </trkpt>
      <trkpt lat="44.923" lon="5.48278">
        <ele>1512.773</ele>
        <time>2019-06-01T10:51:30Z</time>
      </trkpt>
      <trkpt lat="44.92299" lon="5.48285">
        <ele>1515.084</ele>
        <time>2019-06-01T10:51:41Z</time>
      </trkpt>
      <trkpt lat="44.923" lon="5.48295">
        <ele>1516.742</ele>
        <time>2019-06-01T10:51:51Z</time>
      </trkpt>
      <trkpt lat="44.92299" lon="5.48302">
        <ele>1518.536</ele>
        <time>2019-06-01T10:52:01Z</time>
      </trkpt>
      <trkpt lat="44.92301" lon="5.48312">
        <ele>1519.828</ele>
        <time>2019-06-01T10:52:12Z</time>
      </trkpt>
      <trkpt lat="44.923" lon="5.48319">
        <ele>1520.486</ele>
        <time>2019-06-01T10:52:22Z</time>
      </trkpt>
      <trkpt lat="44.92301" lon="5.48321">
        <ele>1520.96</ele>
        <time>2019-06-01T10:52:33Z</time>
      </trkpt>
      <trkpt lat="44.92306" lon="5.48323">
        <ele>1522.246</ele>
        <time>2019-06-01T10:52:43Z</time>
      </trkpt>
      <trkpt lat="44.92301" lon="5.48326">
        <ele>1522.882</ele>
        <time>2019-06-01T10:52:54Z</time>
      </trkpt>
      <trkpt lat="44.923" lon="5.48336">
        <ele>1524.609</ele>
        <time>2019-06-01T10:53:05Z</time>
      </trkpt>
      <trkpt lat="44.92299" lon="5.48348">
        <ele>1526.209</ele>
        <time>2019-06-01T10:53:16Z</time>
      </trkpt>
      <trkpt lat="44.92295" lon="5.48356">
        <ele>1528.149</ele>
        <time>2019-06-01T10:53:26Z</time>
      </trkpt>
      <trkpt lat="44.92293" lon="5.48367">
        <ele>1530.038</ele>
        <time>2019-06-01T10:53:37Z</time>
      </trkpt>
      <trkpt lat="44.92294" lon="5.48369">
        <ele>1531.413</ele>
        <time>2019-06-01T10:53:48Z</time>
      </trkpt>
      <trkpt lat="44.92294" lon="5.48367">
        <ele>1532.509</ele>
        <time>2019-06-01T10:53:59Z</time>
      </trkpt>
      <trkpt lat="44.92294" lon="5.48368">
        <ele>1533.222</ele>
        <time>2019-06-01T10:54:10Z</time>
      </trkpt>
      <trkpt lat="44.92292" lon="5.48368">
        <ele>1534.183</ele>
        <time>2019-06-01T10:54:20Z</time>
      </trkpt>
      <trkpt lat="44.92292" lon="5.48376">
        <ele>1535.921</ele>
        <time>2019-06-01T10:54:30Z</time>
      </trkpt>
      <trkpt lat="44.92293" lon="5.4838">
        <ele>1537.213</ele>
        <time>2019-06-01T10:54:40Z</time>
      </trkpt>
      <trkpt lat="44.92294" lon="5.48384">
        <ele>1538.179</ele>
        <time>2019-06-01T10:54:51Z</time>
      </trkpt>
      <trkpt lat="44.92289" lon="5.48394">
        <ele>1539.838</ele>
        <time>2019-06-01T10:55:02Z</time>
      </trkpt>
      <trkpt lat="44.92289" lon="5.48395">
        <ele>1540.397</ele>
        <time>2019-06-01T10:55:12Z</time>
      </trkpt>
      <trkpt lat="44.92287" lon="5.48404">
        <ele>1542.226</ele>
        <time>2019-06-01T10:55:23Z</time>
      </trkpt>
      <trkpt lat="44.92288" lon="5.48413">
        <ele>1544.034</ele>
        <time>2019-06-01T10:55:33Z</time>
      </trkpt>
      <trkpt lat="44.92289" lon="5.48418">
        <ele>1545.959</ele>
        <time>2019-06-01T10:55:44Z</time>
      </trkpt>
      <trkpt lat="44.92291" lon="5.48418">
        <ele>1547.079</ele>
        <time>2019-06-01T10:55:55Z</time>
      </trkpt>
      <trkpt lat="44.92293" lon="5.48421">
        <ele>1547.911</ele>
        <time>2019-06-01T10:56:06Z</time>
      </trkpt>
      <trkpt lat="44.92291" lon="5.48425">
        <ele>1548.791</ele>
        <time>2019-06-01T10:56:16Z</time>
      </trkpt>
      <trkpt lat="44.92294" lon="5.48434">
        <ele>1550.662</ele>
        <time>2019-06-01T10:56:27Z</time>
      </trkpt>
      <trkpt lat="44.92294" lon="5.48443">
        <ele>1552.447</ele>
        <time>2019-06-01T10:56:38Z</time>
      </trkpt>
      <trkpt lat="44.92295" lon="5.4845">
        <ele>1554.11</ele>
        <time>2019-06-01T10:56:49Z</time>
      </trkpt>
      <trkpt lat="44.92298" lon="5.48454">
        <ele>1555.033</ele>
        <time>2019-06-01T10:57:00Z</time>
      </trkpt>
      <trkpt lat="44.923" lon="5.48459">
        <ele>1555.871</ele>
        <time>2019-06-01T10:57:11Z</time>
      </trkpt>
      <trkpt lat="44.923" lon="5.48472">
        <ele>1557.093</ele>
        <time>2019-06-01T10:57:22Z</time>
      </trkpt>
      <trkpt lat="44.923" lon="5.48479">
        <ele>1559.315</ele>
        <time>2019-06-01T10:57:33Z</time>
      </trkpt>
      <trkpt lat="44.923" lon="5.48495">
        <ele>1561.834</ele>
        <time>2019-06-01T10:57:43Z</time>
      </trkpt>
      <trkpt lat="44.923" lon="5.48505">
        <ele>1564.613</ele>
        <time>2019-06-01T10:57:54Z</time>
      </trkpt>
      <trkpt lat="44.92302" lon="5.48519">
        <ele>1566.683</ele>
        <time>2019-06-01T10:58:05Z</time>
      </trkpt>
      <trkpt lat="44.92302" lon="5.48539">
        <ele>1568.408</ele>
        <time>2019-06-01T10:58:16Z</time>
      </trkpt>
      <trkpt lat="44.92306" lon="5.48548">
        <ele>1570.932</ele>
        <time>2019-06-01T10:58:26Z</time>
      </trkpt>
      <trkpt lat="44.9231" lon="5.48558">
        <ele>1573.065</ele>
        <time>2019-06-01T10:58:37Z</time>
      </trkpt>
      <trkpt lat="44.92312" lon="5.48568">
        <ele>1575</ele>
        <time>2019-06-01T10:58:48Z</time>
      </trkpt>
      <trkpt lat="44.92317" lon="5.48575">
        <ele>1576.422</ele>
        <time>2019-06-01T10:58:59Z</time>
      </trkpt>
      <trkpt lat="44.92324" lon="5.48579">
        <ele>1577.281</ele>
        <time>2019-06-01T10:59:09Z</time>
      </trkpt>
      <trkpt lat="44.92335" lon="5.48577">
        <ele>1578.423</ele>
        <time>2019-06-01T10:59:20Z</time>
      </trkpt>
      <trkpt lat="44.92343" lon="5.4858">
        <ele>1579.315</ele>
        <time>2019-06-01T10:59:30Z</time>
      </trkpt>
      <trkpt lat="44.92353" lon="5.48584">
        <ele>1580.779</ele>
        <time>2019-06-01T10:59:41Z</time>
      </trkpt>
      <trkpt lat="44.92361" lon="5.4859">
        <ele>1582.323</ele>
        <time>2019-06-01T10:59:52Z</time>
      </trkpt>
      <trkpt lat="44.92366" lon="5.48602">
        <ele>1583.896</ele>
        <time>2019-06-01T11:00:03Z</time>
      </trkpt>
      <trkpt lat="44.92374" lon="5.4861">
        <ele>1585.501</ele>
        <time>2019-06-01T11:00:13Z</time>
      </trkpt>
      <trkpt lat="44.92381" lon="5.48618">
        <ele>1586.39</ele>
        <time>2019-06-01T11:00:24Z</time>
      </trkpt>
      <trkpt lat="44.92394" lon="5.48628">
        <ele>1587.086</ele>
        <time>2019-06-01T11:00:34Z</time>
      </trkpt>
      <trkpt lat="44.924" lon="5.48636">
        <ele>1587.762</ele>
        <time>2019-06-01T11:00:45Z</time>
      </trkpt>
      <trkpt lat="44.92405" lon="5.48647">
        <ele>1588.718</ele>
        <time>2019-06-01T11:00:56Z</time>
      </trkpt>
      <trkpt lat="44.92412" lon="5.48654">
        <ele>1589.645</ele>
        <time>2019-06-01T11:01:07Z</time>
      </trkpt>
      <trkpt lat="44.92419" lon="5.48665">
        <ele>1590.125</ele>
        <time>2019-06-01T11:01:18Z</time>
      </trkpt>
      <trkpt lat="44.92424" lon="5.48676">
        <ele>1590.31</ele>
        <time>2019-06-01T11:01:28Z</time>
      </trkpt>
      <trkpt lat="44.92432" lon="5.4869">
        <ele>1590.136</ele>
        <time>2019-06-01T11:01:39Z</time>
      </trkpt>
      <trkpt lat="44.92442" lon="5.48698">
        <ele>1590.078</ele>
        <time>2019-06-01T11:01:49Z</time>
      </trkpt>
      <trkpt lat="44.92448" lon="5.48711">
        <ele>1590.116</ele>
        <time>2019-06-01T11:02:00Z</time>
      </trkpt>
      <trkpt lat="44.92456" lon="5.4872">
        <ele>1589.532</ele>
        <time>2019-06-01T11:02:10Z</time>
      </trkpt>
      <trkpt lat="44.92462" lon="5.48734">
        <ele>1589.497</ele>
        <time>2019-06-01T11:02:21Z</time>
      </trkpt>
      <trkpt lat="44.92469" lon="5.48741">
        <ele>1589.543</ele>
        <time>2019-06-01T11:02:31Z</time>
      </trkpt>
      <trkpt lat="44.92473" lon="5.48749">
        <ele>1590.18</ele>
        <time>2019-06-01T11:02:41Z</time>
      </trkpt>
      <trkpt lat="44.9248" lon="5.48758">
        <ele>1590.722</ele>
        <time>2019-06-01T11:02:52Z</time>
      </trkpt>
      <trkpt lat="44.92489" lon="5.48775">
        <ele>1590.982</ele>
        <time>2019-06-01T11:03:02Z</time>
      </trkpt>
      <trkpt lat="44.92494" lon="5.48784">
        <ele>1591.979</ele>
        <time>2019-06-01T11:03:12Z</time>
      </trkpt>
      <trkpt lat="44.925" lon="5.48799">
        <ele>1592.795</ele>
        <time>2019-06-01T11:03:23Z</time>
      </trkpt>
      <trkpt lat="44.92507" lon="5.48811">
        <ele>1593.141</ele>
        <time>2019-06-01T11:03:33Z</time>
      </trkpt>
      <trkpt lat="44.92512" lon="5.48823">
        <ele>1593.276</ele>
        <time>2019-06-01T11:03:44Z</time>
      </trkpt>
      <trkpt lat="44.92514" lon="5.48833">
        <ele>1593.508</ele>
        <time>2019-06-01T11:03:55Z</time>
      </trkpt>
      <trkpt lat="44.92513" lon="5.48848">
        <ele>1594.565</ele>
        <time>2019-06-01T11:04:06Z</time>
      </trkpt>
      <trkpt lat="44.92516" lon="5.48861">
        <ele>1596.212</ele>
        <time>2019-06-01T11:04:17Z</time>
      </trkpt>
      <trkpt lat="44.92525" lon="5.48871">
        <ele>1597.785</ele>
        <time>2019-06-01T11:04:28Z</time>
      </trkpt>
      <trkpt lat="44.92528" lon="5.48892">
        <ele>1599.282</ele>
        <time>2019-06-01T11:04:39Z</time>
      </trkpt>
      <trkpt lat="44.92533" lon="5.48901">
        <ele>1600.794</ele>
        <time>2019-06-01T11:04:50Z</time>
      </trkpt>
      <trkpt lat="44.92544" lon="5.48909">
        <ele>1601.764</ele>
        <time>2019-06-01T11:05:00Z</time>
      </trkpt>
      <trkpt lat="44.92552" lon="5.48916">
        <ele>1602.05</ele>
        <time>2019-06-01T11:05:10Z</time>
      </trkpt>
      <trkpt lat="44.92557" lon="5.48925">
        <ele>1602.227</ele>
        <time>2019-06-01T11:05:21Z</time>
      </trkpt>
      <trkpt lat="44.92558" lon="5.48926">
        <ele>1602.788</ele>
        <time>2019-06-01T11:05:31Z</time>
      </trkpt>
      <trkpt lat="44.92563" lon="5.4894">
        <ele>1603.898</ele>
        <time>2019-06-01T11:05:42Z</time>
      </trkpt>
      <trkpt lat="44.9257" lon="5.48956">
        <ele>1604.923</ele>
        <time>2019-06-01T11:05:52Z</time>
      </trkpt>
      <trkpt lat="44.92571" lon="5.48967">
        <ele>1605.748</ele>
        <time>2019-06-01T11:06:02Z</time>
      </trkpt>
      <trkpt lat="44.9257" lon="5.48965">
        <ele>1605.903</ele>
        <time>2019-06-01T11:06:12Z</time>
      </trkpt>
      <trkpt lat="44.92571" lon="5.48978">
        <ele>1606.026</ele>
        <time>2019-06-01T11:06:22Z</time>
      </trkpt>
      <trkpt lat="44.92572" lon="5.48994">
        <ele>1605.471</ele>
        <time>2019-06-01T11:06:33Z</time>
      </trkpt>
      <trkpt lat="44.92571" lon="5.49007">
        <ele>1604.47</ele>
        <time>2019-06-01T11:06:43Z</time>
      </trkpt>
      <trkpt lat="44.92574" lon="5.49018">
        <ele>1603.259</ele>
        <time>2019-06-01T11:06:53Z</time>
      </trkpt>
      <trkpt lat="44.92577" lon="5.49026">
        <ele>1602.367</ele>
        <time>2019-06-01T11:07:04Z</time>
      </trkpt>
      <trkpt lat="44.92577" lon="5.49024">
        <ele>1601.889</ele>
        <time>2019-06-01T11:07:14Z</time>
      </trkpt>
      <trkpt lat="44.92576" lon="5.49025">
        <ele>1600.32</ele>
        <time>2019-06-01T11:07:25Z</time>
      </trkpt>
      <trkpt lat="44.92574" lon="5.49034">
        <ele>1599.228</ele>
        <time>2019-06-01T11:07:35Z</time>
      </trkpt>
      <trkpt lat="44.92575" lon="5.49047">
        <ele>1598.905</ele>
        <time>2019-06-01T11:07:46Z</time>
      </trkpt>
      <trkpt lat="44.92577" lon="5.49056">
        <ele>1598.98</ele>
        <time>2019-06-01T11:07:56Z</time>
      </trkpt>
      <trkpt lat="44.9258" lon="5.49069">
        <ele>1599.536</ele>
        <time>2019-06-01T11:08:07Z</time>
      </trkpt>
      <trkpt lat="44.92583" lon="5.49083">
        <ele>1599.839</ele>
        <time>2019-06-01T11:08:17Z</time>
      </trkpt>
      <trkpt lat="44.92585" lon="5.49098">
        <ele>1600.309</ele>
        <time>2019-06-01T11:08:28Z</time>
      </trkpt>
      <trkpt lat="44.92592" lon="5.4911">
        <ele>1600.852</ele>
        <time>2019-06-01T11:08:39Z</time>
      </trkpt>
      <trkpt lat="44.92597" lon="5.49123">
        <ele>1601.16</ele>
        <time>2019-06-01T11:08:50Z</time>
      </trkpt>
      <trkpt lat="44.92605" lon="5.49132">
        <ele>1601.335</ele>
        <time>2019-06-01T11:09:01Z</time>
      </trkpt>
      <trkpt lat="44.92608" lon="5.49143">
        <ele>1601.685</ele>
        <time>2019-06-01T11:09:12Z</time>
      </trkpt>
      <trkpt lat="44.92607" lon="5.49154">
        <ele>1602.47</ele>
        <time>2019-06-01T11:09:22Z</time>
      </trkpt>
      <trkpt lat="44.9261" lon="5.49169">
        <ele>1603.455</ele>
        <time>2019-06-01T11:09:33Z</time>
      </trkpt>
      <trkpt lat="44.92614" lon="5.49182">
        <ele>1604.021</ele>
        <time>2019-06-01T11:09:43Z</time>
      </trkpt>
      <trkpt lat="44.92614" lon="5.49195">
        <ele>1604.71</ele>
        <time>2019-06-01T11:09:54Z</time>
      </trkpt>
      <trkpt lat="44.92615" lon="5.49205">
        <ele>1605.337</ele>
        <time>2019-06-01T11:10:04Z</time>
      </trkpt>
      <trkpt lat="44.92617" lon="5.49207">
        <ele>1605.704</ele>
        <time>2019-06-01T11:10:14Z</time>
      </trkpt>
      <trkpt lat="44.92617" lon="5.49207">
        <ele>1605.811</ele>
        <time>2019-06-01T11:10:25Z</time>
      </trkpt>
      <trkpt lat="44.92617" lon="5.49207">
        <ele>1605.871</ele>
        <time>2019-06-01T11:10:36Z</time>
      </trkpt>
      <trkpt lat="44.92617" lon="5.49207">
        <ele>1605.943</ele>
        <time>2019-06-01T11:10:46Z</time>
      </trkpt>
      <trkpt lat="44.92617" lon="5.49207">
        <ele>1606.006</ele>
        <time>2019-06-01T11:10:56Z</time>
      </trkpt>
      <trkpt lat="44.92617" lon="5.49207">
        <ele>1606.058</ele>
        <time>2019-06-01T11:11:06Z</time>
      </trkpt>
      <trkpt lat="44.92618" lon="5.49208">
        <ele>1606.256</ele>
        <time>2019-06-01T11:11:16Z</time>
      </trkpt>
      <trkpt lat="44.92615" lon="5.49207">
        <ele>1606.26</ele>
        <time>2019-06-01T11:11:27Z</time>
      </trkpt>
      <trkpt lat="44.92615" lon="5.49207">
        <ele>1606.287</ele>
        <time>2019-06-01T11:11:37Z</time>
      </trkpt>
      <trkpt lat="44.92615" lon="5.49207">
        <ele>1606.369</ele>
        <time>2019-06-01T11:11:48Z</time>
      </trkpt>
      <trkpt lat="44.92615" lon="5.49207">
        <ele>1606.409</ele>
        <time>2019-06-01T11:11:59Z</time>
      </trkpt>
      <trkpt lat="44.92616" lon="5.49206">
        <ele>1606.381</ele>
        <time>2019-06-01T11:12:09Z</time>
      </trkpt>
      <trkpt lat="44.92616" lon="5.49206">
        <ele>1606.403</ele>
        <time>2019-06-01T11:12:20Z</time>
      </trkpt>
      <trkpt lat="44.92616" lon="5.49206">
        <ele>1606.465</ele>
        <time>2019-06-01T11:12:31Z</time>
      </trkpt>
      <trkpt lat="44.92616" lon="5.49206">
        <ele>1606.497</ele>
        <time>2019-06-01T11:12:42Z</time>
      </trkpt>
      <trkpt lat="44.92616" lon="5.49206">
        <ele>1606.507</ele>
        <time>2019-06-01T11:12:52Z</time>
      </trkpt>
      <trkpt lat="44.92616" lon="5.49206">
        <ele>1606.518</ele>
        <time>2019-06-01T11:13:03Z</time>
      </trkpt>
      <trkpt lat="44.92616" lon="5.49206">
        <ele>1606.527</ele>
        <time>2019-06-01T11:13:13Z</time>
      </trkpt>
      <trkpt lat="44.92616" lon="5.49206">
        <ele>1606.531</ele>
        <time>2019-06-01T11:13:24Z</time>
      </trkpt>
      <trkpt lat="44.92618" lon="5.49207">
        <ele>1606.666</ele>
        <time>2019-06-01T11:13:34Z</time>
      </trkpt>
      <trkpt lat="44.92619" lon="5.49207">
        <ele>1606.653</ele>
        <time>2019-06-01T11:13:45Z</time>
      </trkpt>
      <trkpt lat="44.92617" lon="5.49203">
        <ele>1606.096</ele>
        <time>2019-06-01T11:13:55Z</time>
      </trkpt>
      <trkpt lat="44.92617" lon="5.49202">
        <ele>1606.276</ele>
        <time>2019-06-01T11:14:06Z</time>
      </trkpt>
      <trkpt lat="44.92617" lon="5.49203">
        <ele>1606.37</ele>
        <time>2019-06-01T11:14:16Z</time>
      </trkpt>
      <trkpt lat="44.92617" lon="5.49204">
        <ele>1606.432</ele>
        <time>2019-06-01T11:14:27Z</time>
      </trkpt>
      <trkpt lat="44.92616" lon="5.49203">
        <ele>1606.564</ele>
        <time>2019-06-01T11:14:38Z</time>
      </trkpt>
      <trkpt lat="44.92616" lon="5.49204">
        <ele>1606.583</ele>
        <time>2019-06-01T11:14:48Z</time>
      </trkpt>
      <trkpt lat="44.92617" lon="5.49206">
        <ele>1606.609</ele>
        <time>2019-06-01T11:14:59Z</time>
      </trkpt>
      <trkpt lat="44.92614" lon="5.49206">
        <ele>1606.206</ele>
        <time>2019-06-01T11:15:10Z</time>
      </trkpt>
      <trkpt lat="44.92615" lon="5.49207">
        <ele>1606.22</ele>
        <time>2019-06-01T11:15:20Z</time>
      </trkpt>
      <trkpt lat="44.92616" lon="5.49208">
        <ele>1606.177</ele>
        <time>2019-06-01T11:15:30Z</time>
      </trkpt>
      <trkpt lat="44.92616" lon="5.49208">
        <ele>1606.054</ele>
        <time>2019-06-01T11:15:41Z</time>
      </trkpt>
      <trkpt lat="44.92617" lon="5.49207">
        <ele>1606.103</ele>
        <time>2019-06-01T11:15:52Z</time>
      </trkpt>
      <trkpt lat="44.92616" lon="5.49208">
        <ele>1606.22</ele>
        <time>2019-06-01T11:16:03Z</time>
      </trkpt>
      <trkpt lat="44.92616" lon="5.49208">
        <ele>1606.251</ele>
        <time>2019-06-01T11:16:14Z</time>
      </trkpt>
      <trkpt lat="44.92616" lon="5.49208">
        <ele>1606.301</ele>
        <time>2019-06-01T11:16:24Z</time>
      </trkpt>
      <trkpt lat="44.92623" lon="5.49211">
        <ele>1606.548</ele>
        <time>2019-06-01T11:16:34Z</time>
      </trkpt>
      <trkpt lat="44.92626" lon="5.49208">
        <ele>1606.699</ele>
        <time>2019-06-01T11:16:44Z</time>
      </trkpt>
      <trkpt lat="44.92636" lon="5.49214">
        <ele>1606.763</ele>
        <time>2019-06-01T11:16:55Z</time>
      </trkpt>
      <trkpt lat="44.92644" lon="5.49227">
        <ele>1606.786</ele>
        <time>2019-06-01T11:17:06Z</time>
      </trkpt>
      <trkpt lat="44.92642" lon="5.4924">
        <ele>1606.851</ele>
        <time>2019-06-01T11:17:16Z</time>
      </trkpt>
      <trkpt lat="44.92639" lon="5.49256">
        <ele>1606.886</ele>
        <time>2019-06-01T11:17:26Z</time>
      </trkpt>
      <trkpt lat="44.9264" lon="5.49269">
        <ele>1606.413</ele>
        <time>2019-06-01T11:17:37Z</time>
      </trkpt>
      <trkpt lat="44.92639" lon="5.49284">
        <ele>1606.53</ele>
        <time>2019-06-01T11:17:47Z</time>
      </trkpt>
      <trkpt lat="44.92639" lon="5.49297">
        <ele>1606.884</ele>
        <time>2019-06-01T11:17:58Z</time>
      </trkpt>
      <trkpt lat="44.92643" lon="5.49302">
        <ele>1606.537</ele>
        <time>2019-06-01T11:18:08Z</time>
      </trkpt>
      <trkpt lat="44.92644" lon="5.49303">
        <ele>1606.412</ele>
        <time>2019-06-01T11:18:19Z</time>
      </trkpt>
      <trkpt lat="44.92644" lon="5.49303">
        <ele>1606.379</ele>
        <time>2019-06-01T11:18:29Z</time>
      </trkpt>
      <trkpt lat="44.92646" lon="5.49306">
        <ele>1606.251</ele>
        <time>2019-06-01T11:18:40Z</time>
      </trkpt>
      <trkpt lat="44.92646" lon="5.49307">
        <ele>1606.229</ele>
        <time>2019-06-01T11:18:50Z</time>
      </trkpt>
      <trkpt lat="44.92646" lon="5.49322">
        <ele>1606.151</ele>
        <time>2019-06-01T11:19:01Z</time>
      </trkpt>
      <trkpt lat="44.92652" lon="5.49334">
        <ele>1605.623</ele>
        <time>2019-06-01T11:19:12Z</time>
      </trkpt>
      <trkpt lat="44.92651" lon="5.49346">
        <ele>1605.005</ele>
        <time>2019-06-01T11:19:22Z</time>
      </trkpt>
      <trkpt lat="44.92652" lon="5.49353">
        <ele>1604.846</ele>
        <time>2019-06-01T11:19:33Z</time>
      </trkpt>
      <trkpt lat="44.9265" lon="5.49364">
        <ele>1604.937</ele>
        <time>2019-06-01T11:19:43Z</time>
      </trkpt>
      <trkpt lat="44.92649" lon="5.49374">
        <ele>1605.274</ele>
        <time>2019-06-01T11:19:53Z</time>
      </trkpt>
      <trkpt lat="44.92654" lon="5.49381">
        <ele>1605.532</ele>
        <time>2019-06-01T11:20:04Z</time>
      </trkpt>
      <trkpt lat="44.92654" lon="5.49392">
        <ele>1605.983</ele>
        <time>2019-06-01T11:20:15Z</time>
      </trkpt>
      <trkpt lat="44.92657" lon="5.494">
        <ele>1606.876</ele>
        <time>2019-06-01T11:20:25Z</time>
      </trkpt>
      <trkpt lat="44.92658" lon="5.49411">
        <ele>1607.736</ele>
        <time>2019-06-01T11:20:36Z</time>
      </trkpt>
      <trkpt lat="44.9266" lon="5.49423">
        <ele>1608.47</ele>
        <time>2019-06-01T11:20:46Z</time>
      </trkpt>
      <trkpt lat="44.92659" lon="5.49433">
        <ele>1609.736</ele>
        <time>2019-06-01T11:20:56Z</time>
      </trkpt>
      <trkpt lat="44.92655" lon="5.49445">
        <ele>1611.062</ele>
        <time>2019-06-01T11:21:07Z</time>
      </trkpt>
      <trkpt lat="44.92652" lon="5.49454">
        <ele>1612.779</ele>
        <time>2019-06-01T11:21:18Z</time>
      </trkpt>
      <trkpt lat="44.92647" lon="5.49465">
        <ele>1613.905</ele>
        <time>2019-06-01T11:21:28Z</time>
      </trkpt>
      <trkpt lat="44.92644" lon="5.49477">
        <ele>1615.118</ele>
        <time>2019-06-01T11:21:39Z</time>
      </trkpt>
      <trkpt lat="44.92644" lon="5.49488">
        <ele>1616.378</ele>
        <time>2019-06-01T11:21:50Z</time>
      </trkpt>
      <trkpt lat="44.92643" lon="5.49497">
        <ele>1617.262</ele>
        <time>2019-06-01T11:22:00Z</time>
      </trkpt>
      <trkpt lat="44.92642" lon="5.49507">
        <ele>1618.497</ele>
        <time>2019-06-01T11:22:10Z</time>
      </trkpt>
      <trkpt lat="44.92639" lon="5.49519">
        <ele>1620.332</ele>
        <time>2019-06-01T11:22:21Z</time>
      </trkpt>
      <trkpt lat="44.9263" lon="5.49524">
        <ele>1621.546</ele>
        <time>2019-06-01T11:22:31Z</time>
      </trkpt>
      <trkpt lat="44.92621" lon="5.4953">
        <ele>1622.204</ele>
        <time>2019-06-01T11:22:42Z</time>
      </trkpt>
      <trkpt lat="44.92613" lon="5.49537">
        <ele>1622.65</ele>
        <time>2019-06-01T11:22:53Z</time>
      </trkpt>
      <trkpt lat="44.92604" lon="5.49549">
        <ele>1623.409</ele>
        <time>2019-06-01T11:23:04Z</time>
      </trkpt>
      <trkpt lat="44.92598" lon="5.4956">
        <ele>1624.702</ele>
        <time>2019-06-01T11:23:15Z</time>
      </trkpt>
      <trkpt lat="44.92589" lon="5.49564">
        <ele>1625.416</ele>
        <time>2019-06-01T11:23:26Z</time>
      </trkpt>
      <trkpt lat="44.92581" lon="5.49564">
        <ele>1625.906</ele>
        <time>2019-06-01T11:23:36Z</time>
      </trkpt>
      <trkpt lat="44.92572" lon="5.49568">
        <ele>1626.458</ele>
        <time>2019-06-01T11:23:46Z</time>
      </trkpt>
      <trkpt lat="44.92563" lon="5.49573">
        <ele>1627.084</ele>
        <time>2019-06-01T11:23:57Z</time>
      </trkpt>
      <trkpt lat="44.92551" lon="5.49572">
        <ele>1627.237</ele>
        <time>2019-06-01T11:24:08Z</time>
      </trkpt>
      <trkpt lat="44.92542" lon="5.49575">
        <ele>1628.069</ele>
        <time>2019-06-01T11:24:18Z</time>
      </trkpt>
      <trkpt lat="44.92534" lon="5.49578">
        <ele>1628.727</ele>
        <time>2019-06-01T11:24:29Z</time>
      </trkpt>
      <trkpt lat="44.92523" lon="5.49586">
        <ele>1629.829</ele>
        <time>2019-06-01T11:24:40Z</time>
      </trkpt>
      <trkpt lat="44.92519" lon="5.49593">
        <ele>1630.739</ele>
        <time>2019-06-01T11:24:51Z</time>
      </trkpt>
      <trkpt lat="44.92515" lon="5.49605">
        <ele>1631.367</ele>
        <time>2019-06-01T11:25:02Z</time>
      </trkpt>
      <trkpt lat="44.92507" lon="5.49611">
        <ele>1632.801</ele>
        <time>2019-06-01T11:25:12Z</time>
      </trkpt>
      <trkpt lat="44.92498" lon="5.49612">
        <ele>1633.994</ele>
        <time>2019-06-01T11:25:22Z</time>
      </trkpt>
      <trkpt lat="44.92493" lon="5.4962">
        <ele>1635.491</ele>
        <time>2019-06-01T11:25:33Z</time>
      </trkpt>
      <trkpt lat="44.9249" lon="5.49631">
        <ele>1637.262</ele>
        <time>2019-06-01T11:25:43Z</time>
      </trkpt>
      <trkpt lat="44.92491" lon="5.49642">
        <ele>1639.001</ele>
        <time>2019-06-01T11:25:54Z</time>
      </trkpt>
      <trkpt lat="44.92488" lon="5.49656">
        <ele>1639.954</ele>
        <time>2019-06-01T11:26:05Z</time>
      </trkpt>
      <trkpt lat="44.92481" lon="5.49663">
        <ele>1640.578</ele>
        <time>2019-06-01T11:26:15Z</time>
      </trkpt>
      <trkpt lat="44.92471" lon="5.49664">
        <ele>1641.01</ele>
        <time>2019-06-01T11:26:25Z</time>
      </trkpt>
      <trkpt lat="44.92467" lon="5.49671">
        <ele>1641.684</ele>
        <time>2019-06-01T11:26:36Z</time>
      </trkpt>
      <trkpt lat="44.92463" lon="5.49684">
        <ele>1642.048</ele>
        <time>2019-06-01T11:26:47Z</time>
      </trkpt>
      <trkpt lat="44.92454" lon="5.49682">
        <ele>1642.26</ele>
        <time>2019-06-01T11:26:58Z</time>
      </trkpt>
      <trkpt lat="44.92448" lon="5.49683">
        <ele>1642.645</ele>
        <time>2019-06-01T11:27:09Z</time>
      </trkpt>
      <trkpt lat="44.92442" lon="5.49684">
        <ele>1643.743</ele>
        <time>2019-06-01T11:27:20Z</time>
      </trkpt>
      <trkpt lat="44.92435" lon="5.49683">
        <ele>1645.13</ele>
        <time>2019-06-01T11:27:31Z</time>
      </trkpt>
      <trkpt lat="44.92432" lon="5.4969">
        <ele>1646.184</ele>
        <time>2019-06-01T11:27:41Z</time>
      </trkpt>
      <trkpt lat="44.92431" lon="5.49698">
        <ele>1647.849</ele>
        <time>2019-06-01T11:27:52Z</time>
      </trkpt>
      <trkpt lat="44.92427" lon="5.49703">
        <ele>1649.916</ele>
        <time>2019-06-01T11:28:03Z</time>
      </trkpt>
      <trkpt lat="44.92421" lon="5.49712">
        <ele>1651.156</ele>
        <time>2019-06-01T11:28:13Z</time>
      </trkpt>
      <trkpt lat="44.92422" lon="5.49724">
        <ele>1652.441</ele>
        <time>2019-06-01T11:28:23Z</time>
      </trkpt>
      <trkpt lat="44.9242" lon="5.49737">
        <ele>1653.87</ele>
        <time>2019-06-01T11:28:34Z</time>
      </trkpt>
      <trkpt lat="44.92419" lon="5.49745">
        <ele>1655.361</ele>
        <time>2019-06-01T11:28:45Z</time>
      </trkpt>
      <trkpt lat="44.92418" lon="5.49756">
        <ele>1657.361</ele>
        <time>2019-06-01T11:28:55Z</time>
      </trkpt>
      <trkpt lat="44.92414" lon="5.49765">
        <ele>1659.042</ele>
        <time>2019-06-01T11:29:06Z</time>
      </trkpt>
      <trkpt lat="44.9241" lon="5.49771">
        <ele>1660.636</ele>
        <time>2019-06-01T11:29:17Z</time>
      </trkpt>
      <trkpt lat="44.92409" lon="5.4978">
        <ele>1661.988</ele>
        <time>2019-06-01T11:29:28Z</time>
      </trkpt>
      <trkpt lat="44.92409" lon="5.49789">
        <ele>1662.716</ele>
        <time>2019-06-01T11:29:39Z</time>
      </trkpt>
      <trkpt lat="44.9241" lon="5.49799">
        <ele>1664.551</ele>
        <time>2019-06-01T11:29:50Z</time>
      </trkpt>
      <trkpt lat="44.92408" lon="5.49809">
        <ele>1666.099</ele>
        <time>2019-06-01T11:30:01Z</time>
      </trkpt>
      <trkpt lat="44.92403" lon="5.49816">
        <ele>1667.91</ele>
        <time>2019-06-01T11:30:12Z</time>
      </trkpt>
      <trkpt lat="44.92403" lon="5.49825">
        <ele>1669.394</ele>
        <time>2019-06-01T11:30:23Z</time>
      </trkpt>
      <trkpt lat="44.92406" lon="5.49833">
        <ele>1671.003</ele>
        <time>2019-06-01T11:30:33Z</time>
      </trkpt>
      <trkpt lat="44.92408" lon="5.49843">
        <ele>1672.328</ele>
        <time>2019-06-01T11:30:43Z</time>
      </trkpt>
      <trkpt lat="44.9241" lon="5.49857">
        <ele>1673.978</ele>
        <time>2019-06-01T11:30:53Z</time>
      </trkpt>
      <trkpt lat="44.92409" lon="5.4987">
        <ele>1675.568</ele>
        <time>2019-06-01T11:31:04Z</time>
      </trkpt>
      <trkpt lat="44.92409" lon="5.4988">
        <ele>1676.521</ele>
        <time>2019-06-01T11:31:14Z</time>
      </trkpt>
      <trkpt lat="44.92408" lon="5.49886">
        <ele>1678.251</ele>
        <time>2019-06-01T11:31:25Z</time>
      </trkpt>
      <trkpt lat="44.92405" lon="5.49896">
        <ele>1679.658</ele>
        <time>2019-06-01T11:31:35Z</time>
      </trkpt>
      <trkpt lat="44.92399" lon="5.49904">
        <ele>1680.742</ele>
        <time>2019-06-01T11:31:46Z</time>
      </trkpt>
      <trkpt lat="44.92395" lon="5.49918">
        <ele>1681.66</ele>
        <time>2019-06-01T11:31:57Z</time>
      </trkpt>
      <trkpt lat="44.92389" lon="5.49927">
        <ele>1682.927</ele>
        <time>2019-06-01T11:32:08Z</time>
      </trkpt>
      <trkpt lat="44.9238" lon="5.49931">
        <ele>1684.51</ele>
        <time>2019-06-01T11:32:19Z</time>
      </trkpt>
      <trkpt lat="44.92377" lon="5.49936">
        <ele>1685.082</ele>
        <time>2019-06-01T11:32:30Z</time>
      </trkpt>
      <trkpt lat="44.92377" lon="5.49943">
        <ele>1685.909</ele>
        <time>2019-06-01T11:32:40Z</time>
      </trkpt>
      <trkpt lat="44.92379" lon="5.49954">
        <ele>1687.236</ele>
        <time>2019-06-01T11:32:50Z</time>
      </trkpt>
      <trkpt lat="44.92379" lon="5.49964">
        <ele>1688.411</ele>
        <time>2019-06-01T11:33:01Z</time>
      </trkpt>
      <trkpt lat="44.92375" lon="5.49973">
        <ele>1689.761</ele>
        <time>2019-06-01T11:33:12Z</time>
      </trkpt>
      <trkpt lat="44.9237" lon="5.4998">
        <ele>1690.848</ele>
        <time>2019-06-01T11:33:23Z</time>
      </trkpt>
      <trkpt lat="44.92361" lon="5.49982">
        <ele>1691.426</ele>
        <time>2019-06-01T11:33:33Z</time>
      </trkpt>
      <trkpt lat="44.92355" lon="5.49988">
        <ele>1691.616</ele>
        <time>2019-06-01T11:33:43Z</time>
      </trkpt>
      <trkpt lat="44.92351" lon="5.49998">
        <ele>1692.088</ele>
        <time>2019-06-01T11:33:54Z</time>
      </trkpt>
      <trkpt lat="44.92346" lon="5.50003">
        <ele>1692.899</ele>
        <time>2019-06-01T11:34:04Z</time>
      </trkpt>
      <trkpt lat="44.92341" lon="5.50008">
        <ele>1693.987</ele>
        <time>2019-06-01T11:34:15Z</time>
      </trkpt>
      <trkpt lat="44.92342" lon="5.50016">
        <ele>1694.594</ele>
        <time>2019-06-01T11:34:25Z</time>
      </trkpt>
      <trkpt lat="44.92338" lon="5.50028">
        <ele>1696.096</ele>
        <time>2019-06-01T11:34:36Z</time>
      </trkpt>
      <trkpt lat="44.92336" lon="5.50037">
        <ele>1698.274</ele>
        <time>2019-06-01T11:34:47Z</time>
      </trkpt>
      <trkpt lat="44.92333" lon="5.50055">
        <ele>1700.709</ele>
        <time>2019-06-01T11:34:58Z</time>
      </trkpt>
      <trkpt lat="44.9233" lon="5.5007">
        <ele>1702.669</ele>
        <time>2019-06-01T11:35:08Z</time>
      </trkpt>
      <trkpt lat="44.92321" lon="5.50078">
        <ele>1704.166</ele>
        <time>2019-06-01T11:35:19Z</time>
      </trkpt>
      <trkpt lat="44.92317" lon="5.50081">
        <ele>1704.318</ele>
        <time>2019-06-01T11:35:29Z</time>
      </trkpt>
      <trkpt lat="44.92315" lon="5.50092">
        <ele>1704.287</ele>
        <time>2019-06-01T11:35:40Z</time>
      </trkpt>
      <trkpt lat="44.92309" lon="5.50098">
        <ele>1704.034</ele>
        <time>2019-06-01T11:35:50Z</time>
      </trkpt>
      <trkpt lat="44.92308" lon="5.50106">
        <ele>1704.021</ele>
        <time>2019-06-01T11:36:00Z</time>
      </trkpt>
      <trkpt lat="44.92303" lon="5.50114">
        <ele>1703.642</ele>
        <time>2019-06-01T11:36:11Z</time>
      </trkpt>
      <trkpt lat="44.92297" lon="5.50128">
        <ele>1702.977</ele>
        <time>2019-06-01T11:36:21Z</time>
      </trkpt>
      <trkpt lat="44.92293" lon="5.50145">
        <ele>1702.673</ele>
        <time>2019-06-01T11:36:32Z</time>
      </trkpt>
      <trkpt lat="44.92291" lon="5.50158">
        <ele>1702.866</ele>
        <time>2019-06-01T11:36:43Z</time>
      </trkpt>
      <trkpt lat="44.92286" lon="5.5017">
        <ele>1703.504</ele>
        <time>2019-06-01T11:36:54Z</time>
      </trkpt>
      <trkpt lat="44.92283" lon="5.50182">
        <ele>1704.358</ele>
        <time>2019-06-01T11:37:05Z</time>
      </trkpt>
      <trkpt lat="44.92273" lon="5.50189">
        <ele>1705.192</ele>
        <time>2019-06-01T11:37:15Z</time>
      </trkpt>
      <trkpt lat="44.92264" lon="5.50194">
        <ele>1705.31</ele>
        <time>2019-06-01T11:37:26Z</time>
      </trkpt>
      <trkpt lat="44.92253" lon="5.50201">
        <ele>1705.372</ele>
        <time>2019-06-01T11:37:36Z</time>
      </trkpt>
      <trkpt lat="44.9224" lon="5.50201">
        <ele>1705.705</ele>
        <time>2019-06-01T11:37:47Z</time>
      </trkpt>
      <trkpt lat="44.92229" lon="5.50203">
        <ele>1705.913</ele>
        <time>2019-06-01T11:37:58Z</time>
      </trkpt>
      <trkpt lat="44.92221" lon="5.50204">
        <ele>1705.681</ele>
        <time>2019-06-01T11:38:09Z</time>
      </trkpt>
      <trkpt lat="44.92221" lon="5.50204">
        <ele>1705.668</ele>
        <time>2019-06-01T11:38:19Z</time>
      </trkpt>
      <trkpt lat="44.92215" lon="5.50204">
        <ele>1705.48</ele>
        <time>2019-06-01T11:38:29Z</time>
      </trkpt>
      <trkpt lat="44.92203" lon="5.50205">
        <ele>1705.355</ele>
        <time>2019-06-01T11:38:40Z</time>
      </trkpt>
      <trkpt lat="44.92191" lon="5.50202">
        <ele>1705.37</ele>
        <time>2019-06-01T11:38:51Z</time>
      </trkpt>
      <trkpt lat="44.92181" lon="5.50205">
        <ele>1706.05</ele>
        <time>2019-06-01T11:39:02Z</time>
      </trkpt>
      <trkpt lat="44.92172" lon="5.50202">
        <ele>1707.052</ele>
        <time>2019-06-01T11:39:12Z</time>
      </trkpt>
      <trkpt lat="44.92162" lon="5.50205">
        <ele>1708.57</ele>
        <time>2019-06-01T11:39:23Z</time>
      </trkpt>
      <trkpt lat="44.92153" lon="5.50204">
        <ele>1710.62</ele>
        <time>2019-06-01T11:39:34Z</time>
      </trkpt>
      <trkpt lat="44.92143" lon="5.50206">
        <ele>1711.993</ele>
        <time>2019-06-01T11:39:45Z</time>
      </trkpt>
      <trkpt lat="44.92143" lon="5.50208">
        <ele>1712.177</ele>
        <time>2019-06-01T11:39:56Z</time>
      </trkpt>
      <trkpt lat="44.92143" lon="5.50209">
        <ele>1712.426</ele>
        <time>2019-06-01T11:40:07Z</time>
      </trkpt>
      <trkpt lat="44.92134" lon="5.50211">
        <ele>1713.604</ele>
        <time>2019-06-01T11:40:17Z</time>
      </trkpt>
      <trkpt lat="44.92127" lon="5.50212">
        <ele>1713.582</ele>
        <time>2019-06-01T11:40:28Z</time>
      </trkpt>
      <trkpt lat="44.92115" lon="5.50211">
        <ele>1712.312</ele>
        <time>2019-06-01T11:40:39Z</time>
      </trkpt>
      <trkpt lat="44.92106" lon="5.50204">
        <ele>1711.413</ele>
        <time>2019-06-01T11:40:49Z</time>
      </trkpt>
      <trkpt lat="44.92098" lon="5.50201">
        <ele>1710.123</ele>
        <time>2019-06-01T11:41:00Z</time>
      </trkpt>
      <trkpt lat="44.92095" lon="5.50198">
        <ele>1708.574</ele>
        <time>2019-06-01T11:41:11Z</time>
      </trkpt>
      <trkpt lat="44.92083" lon="5.50195">
        <ele>1706.948</ele>
        <time>2019-06-01T11:41:22Z</time>
      </trkpt>
      <trkpt lat="44.92074" lon="5.50196">
        <ele>1704.968</ele>
        <time>2019-06-01T11:41:32Z</time>
      </trkpt>
      <trkpt lat="44.92064" lon="5.50196">
        <ele>1703.394</ele>
        <time>2019-06-01T11:41:42Z</time>
      </trkpt>
      <trkpt lat="44.92051" lon="5.50192">
        <ele>1702.185</ele>
        <time>2019-06-01T11:41:53Z</time>
      </trkpt>
      <trkpt lat="44.92041" lon="5.50186">
        <ele>1701.551</ele>
        <time>2019-06-01T11:42:03Z</time>
      </trkpt>
      <trkpt lat="44.9203" lon="5.50189">
        <ele>1701.426</ele>
        <time>2019-06-01T11:42:14Z</time>
      </trkpt>
      <trkpt lat="44.92021" lon="5.50189">
        <ele>1701.588</ele>
        <time>2019-06-01T11:42:24Z</time>
      </trkpt>
      <trkpt lat="44.92012" lon="5.50188">
        <ele>1702.329</ele>
        <time>2019-06-01T11:42:34Z</time>
      </trkpt>
      <trkpt lat="44.92" lon="5.50188">
        <ele>1703.258</ele>
        <time>2019-06-01T11:42:45Z</time>
      </trkpt>
      <trkpt lat="44.91989" lon="5.50184">
        <ele>1703.717</ele>
        <time>2019-06-01T11:42:55Z</time>
      </trkpt>
      <trkpt lat="44.91979" lon="5.50183">
        <ele>1703.738</ele>
        <time>2019-06-01T11:43:06Z</time>
      </trkpt>
      <trkpt lat="44.91969" lon="5.50185">
        <ele>1703.73</ele>
        <time>2019-06-01T11:43:17Z</time>
      </trkpt>
      <trkpt lat="44.91957" lon="5.50183">
        <ele>1702.771</ele>
        <time>2019-06-01T11:43:28Z</time>
      </trkpt>
      <trkpt lat="44.91946" lon="5.5018">
        <ele>1702.121</ele>
        <time>2019-06-01T11:43:38Z</time>
      </trkpt>
      <trkpt lat="44.91934" lon="5.50177">
        <ele>1701.408</ele>
        <time>2019-06-01T11:43:48Z</time>
      </trkpt>
      <trkpt lat="44.91924" lon="5.50175">
        <ele>1700.882</ele>
        <time>2019-06-01T11:43:59Z</time>
      </trkpt>
      <trkpt lat="44.91912" lon="5.5017">
        <ele>1700.643</ele>
        <time>2019-06-01T11:44:09Z</time>
      </trkpt>
      <trkpt lat="44.91902" lon="5.50164">
        <ele>1699.919</ele>
        <time>2019-06-01T11:44:20Z</time>
      </trkpt>
      <trkpt lat="44.91891" lon="5.50159">
        <ele>1698.844</ele>
        <time>2019-06-01T11:44:30Z</time>
      </trkpt>
      <trkpt lat="44.91882" lon="5.50154">
        <ele>1697.519</ele>
        <time>2019-06-01T11:44:41Z</time>
      </trkpt>
      <trkpt lat="44.91873" lon="5.5015">
        <ele>1696.832</ele>
        <time>2019-06-01T11:44:52Z</time>
      </trkpt>
      <trkpt lat="44.91866" lon="5.50141">
        <ele>1696.92</ele>
        <time>2019-06-01T11:45:02Z</time>
      </trkpt>
      <trkpt lat="44.91859" lon="5.50128">
        <ele>1697.534</ele>
        <time>2019-06-01T11:45:13Z</time>
      </trkpt>
      <trkpt lat="44.91849" lon="5.50115">
        <ele>1698.341</ele>
        <time>2019-06-01T11:45:24Z</time>
      </trkpt>
      <trkpt lat="44.91847" lon="5.50113">
        <ele>1698.76</ele>
        <time>2019-06-01T11:45:35Z</time>
      </trkpt>
      <trkpt lat="44.91846" lon="5.50113">
        <ele>1698.859</ele>
        <time>2019-06-01T11:45:45Z</time>
      </trkpt>
      <trkpt lat="44.91845" lon="5.50109">
        <ele>1698.982</ele>
        <time>2019-06-01T11:45:56Z</time>
      </trkpt>
      <trkpt lat="44.91838" lon="5.50094">
        <ele>1698.418</ele>
        <time>2019-06-01T11:46:06Z</time>
      </trkpt>
      <trkpt lat="44.91833" lon="5.50086">
        <ele>1697.275</ele>
        <time>2019-06-01T11:46:17Z</time>
      </trkpt>
      <trkpt lat="44.91821" lon="5.50075">
        <ele>1696.022</ele>
        <time>2019-06-01T11:46:28Z</time>
      </trkpt>
      <trkpt lat="44.91811" lon="5.50072">
        <ele>1695.25</ele>
        <time>2019-06-01T11:46:38Z</time>
      </trkpt>
      <trkpt lat="44.91798" lon="5.50066">
        <ele>1694.544</ele>
        <time>2019-06-01T11:46:49Z</time>
      </trkpt>
      <trkpt lat="44.91789" lon="5.50057">
        <ele>1693.958</ele>
        <time>2019-06-01T11:46:59Z</time>
      </trkpt>
      <trkpt lat="44.91777" lon="5.50044">
        <ele>1693.69</ele>
        <time>2019-06-01T11:47:09Z</time>
      </trkpt>
      <trkpt lat="44.91768" lon="5.50036">
        <ele>1693.31</ele>
        <time>2019-06-01T11:47:20Z</time>
      </trkpt>
      <trkpt lat="44.91759" lon="5.50029">
        <ele>1692.346</ele>
        <time>2019-06-01T11:47:30Z</time>
      </trkpt>
      <trkpt lat="44.9175" lon="5.50016">
        <ele>1691.379</ele>
        <time>2019-06-01T11:47:41Z</time>
      </trkpt>
      <trkpt lat="44.9175" lon="5.50015">
        <ele>1691.145</ele>
        <time>2019-06-01T11:47:52Z</time>
      </trkpt>
      <trkpt lat="44.91753" lon="5.50012">
        <ele>1691.161</ele>
        <time>2019-06-01T11:48:03Z</time>
      </trkpt>
      <trkpt lat="44.91753" lon="5.50012">
        <ele>1691.171</ele>
        <time>2019-06-01T11:48:13Z</time>
      </trkpt>
      <trkpt lat="44.91753" lon="5.5001">
        <ele>1691.094</ele>
        <time>2019-06-01T11:48:23Z</time>
      </trkpt>
      <trkpt lat="44.91753" lon="5.5001">
        <ele>1690.979</ele>
        <time>2019-06-01T11:48:34Z</time>
      </trkpt>
      <trkpt lat="44.91753" lon="5.50009">
        <ele>1690.877</ele>
        <time>2019-06-01T11:48:44Z</time>
      </trkpt>
      <trkpt lat="44.91753" lon="5.50008">
        <ele>1690.629</ele>
        <time>2019-06-01T11:48:55Z</time>
      </trkpt>
      <trkpt lat="44.91753" lon="5.50008">
        <ele>1690.524</ele>
        <time>2019-06-01T11:49:06Z</time>
      </trkpt>
      <trkpt lat="44.91754" lon="5.50008">
        <ele>1690.505</ele>
        <time>2019-06-01T11:49:16Z</time>
      </trkpt>
      <trkpt lat="44.91754" lon="5.50007">
        <ele>1690.508</ele>
        <time>2019-06-01T11:49:27Z</time>
      </trkpt>
      <trkpt lat="44.91754" lon="5.50007">
        <ele>1690.499</ele>
        <time>2019-06-01T11:49:38Z</time>
      </trkpt>
      <trkpt lat="44.91754" lon="5.50007">
        <ele>1690.444</ele>
        <time>2019-06-01T11:49:48Z</time>
      </trkpt>
      <trkpt lat="44.91754" lon="5.50007">
        <ele>1690.355</ele>
        <time>2019-06-01T11:49:59Z</time>
      </trkpt>
      <trkpt lat="44.91753" lon="5.50007">
        <ele>1690.167</ele>
        <time>2019-06-01T11:50:09Z</time>
      </trkpt>
      <trkpt lat="44.91754" lon="5.50008">
        <ele>1689.906</ele>
        <time>2019-06-01T11:50:19Z</time>
      </trkpt>
      <trkpt lat="44.91754" lon="5.50009">
        <ele>1689.822</ele>
        <time>2019-06-01T11:50:29Z</time>
      </trkpt>
      <trkpt lat="44.91754" lon="5.50011">
        <ele>1689.433</ele>
        <time>2019-06-01T11:50:39Z</time>
      </trkpt>
      <trkpt lat="44.91753" lon="5.5001">
        <ele>1689.395</ele>
        <time>2019-06-01T11:50:49Z</time>
      </trkpt>
      <trkpt lat="44.91752" lon="5.50006">
        <ele>1689.785</ele>
        <time>2019-06-01T11:51:00Z</time>
      </trkpt>
      <trkpt lat="44.91752" lon="5.50006">
        <ele>1689.859</ele>
        <time>2019-06-01T11:51:11Z</time>
      </trkpt>
      <trkpt lat="44.9175" lon="5.50006">
        <ele>1690.342</ele>
        <time>2019-06-01T11:51:22Z</time>
      </trkpt>
      <trkpt lat="44.9175" lon="5.50006">
        <ele>1690.623</ele>
        <time>2019-06-01T11:51:32Z</time>
      </trkpt>
      <trkpt lat="44.9175" lon="5.50007">
        <ele>1691.619</ele>
        <time>2019-06-01T11:51:43Z</time>
      </trkpt>
      <trkpt lat="44.91741" lon="5.50016">
        <ele>1692.824</ele>
        <time>2019-06-01T11:51:54Z</time>
      </trkpt>
      <trkpt lat="44.91736" lon="5.50023">
        <ele>1692.294</ele>
        <time>2019-06-01T11:52:05Z</time>
      </trkpt>
      <trkpt lat="44.91732" lon="5.50032">
        <ele>1691.502</ele>
        <time>2019-06-01T11:52:15Z</time>
      </trkpt>
      <trkpt lat="44.91735" lon="5.50039">
        <ele>1690.431</ele>
        <time>2019-06-01T11:52:25Z</time>
      </trkpt>
      <trkpt lat="44.91728" lon="5.50037">
        <ele>1689.282</ele>
        <time>2019-06-01T11:52:36Z</time>
      </trkpt>
      <trkpt lat="44.91718" lon="5.50032">
        <ele>1687.994</ele>
        <time>2019-06-01T11:52:47Z</time>
      </trkpt>
      <trkpt lat="44.9171" lon="5.50021">
        <ele>1687.011</ele>
        <time>2019-06-01T11:52:57Z</time>
      </trkpt>
      <trkpt lat="44.917" lon="5.50008">
        <ele>1685.989</ele>
        <time>2019-06-01T11:53:08Z</time>
      </trkpt>
      <trkpt lat="44.9169" lon="5.50001">
        <ele>1685.931</ele>
        <time>2019-06-01T11:53:19Z</time>
      </trkpt>
      <trkpt lat="44.91687" lon="5.49993">
        <ele>1684.657</ele>
        <time>2019-06-01T11:53:30Z</time>
      </trkpt>
      <trkpt lat="44.91683" lon="5.49982">
        <ele>1682.782</ele>
        <time>2019-06-01T11:53:41Z</time>
      </trkpt>
      <trkpt lat="44.91677" lon="5.49969">
        <ele>1681.281</ele>
        <time>2019-06-01T11:53:51Z</time>
      </trkpt>
      <trkpt lat="44.91668" lon="5.49965">
        <ele>1679.966</ele>
        <time>2019-06-01T11:54:01Z</time>
      </trkpt>
      <trkpt lat="44.91661" lon="5.49958">
        <ele>1678.029</ele>
        <time>2019-06-01T11:54:12Z</time>
      </trkpt>
      <trkpt lat="44.91658" lon="5.4995">
        <ele>1676.285</ele>
        <time>2019-06-01T11:54:22Z</time>
      </trkpt>
      <trkpt lat="44.91651" lon="5.49943">
        <ele>1674.63</ele>
        <time>2019-06-01T11:54:33Z</time>
      </trkpt>
      <trkpt lat="44.91648" lon="5.49949">
        <ele>1673.154</ele>
        <time>2019-06-01T11:54:44Z</time>
      </trkpt>
      <trkpt lat="44.91645" lon="5.49958">
        <ele>1671.772</ele>
        <time>2019-06-01T11:54:54Z</time>
      </trkpt>
      <trkpt lat="44.91644" lon="5.49966">
        <ele>1670.263</ele>
        <time>2019-06-01T11:55:05Z</time>
      </trkpt>
      <trkpt lat="44.91641" lon="5.49962">
        <ele>1669.277</ele>
        <time>2019-06-01T11:55:16Z</time>
      </trkpt>
      <trkpt lat="44.91636" lon="5.49953">
        <ele>1668.471</ele>
        <time>2019-06-01T11:55:26Z</time>
      </trkpt>
      <trkpt lat="44.9163" lon="5.49947">
        <ele>1667.632</ele>
        <time>2019-06-01T11:55:37Z</time>
      </trkpt>
      <trkpt lat="44.91628" lon="5.4994">
        <ele>1666.646</ele>
        <time>2019-06-01T11:55:48Z</time>
      </trkpt>
      <trkpt lat="44.91623" lon="5.49935">
        <ele>1665.814</ele>
        <time>2019-06-01T11:55:59Z</time>
      </trkpt>
      <trkpt lat="44.91618" lon="5.49929">
        <ele>1663.99</ele>
        <time>2019-06-01T11:56:10Z</time>
      </trkpt>
      <trkpt lat="44.91615" lon="5.49917">
        <ele>1662.293</ele>
        <time>2019-06-01T11:56:21Z</time>
      </trkpt>
      <trkpt lat="44.91611" lon="5.49914">
        <ele>1661.35</ele>
        <time>2019-06-01T11:56:31Z</time>
      </trkpt>
      <trkpt lat="44.91606" lon="5.49922">
        <ele>1660.324</ele>
        <time>2019-06-01T11:56:42Z</time>
      </trkpt>
      <trkpt lat="44.916" lon="5.49924">
        <ele>1658.907</ele>
        <time>2019-06-01T11:56:53Z</time>
      </trkpt>
      <trkpt lat="44.91598" lon="5.49927">
        <ele>1657.023</ele>
        <time>2019-06-01T11:57:04Z</time>
      </trkpt>
      <trkpt lat="44.91589" lon="5.49928">
        <ele>1653.754</ele>
        <time>2019-06-01T11:57:15Z</time>
      </trkpt>
      <trkpt lat="44.91581" lon="5.49925">
        <ele>1650.866</ele>
        <time>2019-06-01T11:57:25Z</time>
      </trkpt>
      <trkpt lat="44.91574" lon="5.49933">
        <ele>1647.803</ele>
        <time>2019-06-01T11:57:36Z</time>
      </trkpt>
      <trkpt lat="44.91569" lon="5.49939">
        <ele>1644.456</ele>
        <time>2019-06-01T11:57:46Z</time>
      </trkpt>
      <trkpt lat="44.91566" lon="5.49952">
        <ele>1641.566</ele>
        <time>2019-06-01T11:57:57Z</time>
      </trkpt>
      <trkpt lat="44.91559" lon="5.49961">
        <ele>1638.626</ele>
        <time>2019-06-01T11:58:07Z</time>
      </trkpt>
      <trkpt lat="44.91552" lon="5.49965">
        <ele>1636.002</ele>
        <time>2019-06-01T11:58:18Z</time>
      </trkpt>
      <trkpt lat="44.91549" lon="5.49975">
        <ele>1632.938</ele>
        <time>2019-06-01T11:58:29Z</time>
      </trkpt>
      <trkpt lat="44.91547" lon="5.49991">
        <ele>1630.995</ele>
        <time>2019-06-01T11:58:40Z</time>
      </trkpt>
      <trkpt lat="44.91547" lon="5.50008">
        <ele>1629.058</ele>
        <time>2019-06-01T11:58:50Z</time>
      </trkpt>
      <trkpt lat="44.91543" lon="5.50019">
        <ele>1627.641</ele>
        <time>2019-06-01T11:59:01Z</time>
      </trkpt>
      <trkpt lat="44.91541" lon="5.50029">
        <ele>1627.273</ele>
        <time>2019-06-01T11:59:11Z</time>
      </trkpt>
      <trkpt lat="44.9154" lon="5.50047">
        <ele>1627.329</ele>
        <time>2019-06-01T11:59:22Z</time>
      </trkpt>
      <trkpt lat="44.91537" lon="5.50053">
        <ele>1627.188</ele>
        <time>2019-06-01T11:59:33Z</time>
      </trkpt>
      <trkpt lat="44.91531" lon="5.50059">
        <ele>1627.158</ele>
        <time>2019-06-01T11:59:44Z</time>
      </trkpt>
      <trkpt lat="44.91525" lon="5.50067">
        <ele>1627.035</ele>
        <time>2019-06-01T11:59:55Z</time>
      </trkpt>
      <trkpt lat="44.91522" lon="5.50072">
        <ele>1627.608</ele>
        <time>2019-06-01T12:00:06Z</time>
      </trkpt>
      <trkpt lat="44.91518" lon="5.50078">
        <ele>1629.46</ele>
        <time>2019-06-01T12:00:16Z</time>
      </trkpt>
      <trkpt lat="44.91513" lon="5.50091">
        <ele>1630.943</ele>
        <time>2019-06-01T12:00:27Z</time>
      </trkpt>
      <trkpt lat="44.9151" lon="5.50101">
        <ele>1632.085</ele>
        <time>2019-06-01T12:00:37Z</time>
      </trkpt>
      <trkpt lat="44.91506" lon="5.50105">
        <ele>1633.482</ele>
        <time>2019-06-01T12:00:48Z</time>
      </trkpt>
      <trkpt lat="44.91502" lon="5.50107">
        <ele>1635.474</ele>
        <time>2019-06-01T12:00:58Z</time>
      </trkpt>
      <trkpt lat="44.91497" lon="5.50107">
        <ele>1637.165</ele>
        <time>2019-06-01T12:01:09Z</time>
      </trkpt>
      <trkpt lat="44.9149" lon="5.50107">
        <ele>1639.007</ele>
        <time>2019-06-01T12:01:20Z</time>
      </trkpt>
      <trkpt lat="44.91487" lon="5.50105">
        <ele>1641.226</ele>
        <time>2019-06-01T12:01:31Z</time>
      </trkpt>
      <trkpt lat="44.91482" lon="5.50105">
        <ele>1642.768</ele>
        <time>2019-06-01T12:01:41Z</time>
      </trkpt>
      <trkpt lat="44.91478" lon="5.50115">
        <ele>1643.982</ele>
        <time>2019-06-01T12:01:52Z</time>
      </trkpt>
      <trkpt lat="44.91474" lon="5.50118">
        <ele>1645.019</ele>
        <time>2019-06-01T12:02:02Z</time>
      </trkpt>
      <trkpt lat="44.91468" lon="5.50121">
        <ele>1646.356</ele>
        <time>2019-06-01T12:02:13Z</time>
      </trkpt>
      <trkpt lat="44.91458" lon="5.50114">
        <ele>1647.762</ele>
        <time>2019-06-01T12:02:24Z</time>
      </trkpt>
      <trkpt lat="44.91453" lon="5.50109">
        <ele>1649.565</ele>
        <time>2019-06-01T12:02:34Z</time>
      </trkpt>
      <trkpt lat="44.91447" lon="5.50098">
        <ele>1652.275</ele>
        <time>2019-06-01T12:02:45Z</time>
      </trkpt>
      <trkpt lat="44.9144" lon="5.50086">
        <ele>1653.866</ele>
        <time>2019-06-01T12:02:56Z</time>
      </trkpt>
      <trkpt lat="44.91425" lon="5.50085">
        <ele>1654.318</ele>
        <time>2019-06-01T12:03:07Z</time>
      </trkpt>
      <trkpt lat="44.91416" lon="5.50084">
        <ele>1654.561</ele>
        <time>2019-06-01T12:03:17Z</time>
      </trkpt>
      <trkpt lat="44.91407" lon="5.50084">
        <ele>1654.991</ele>
        <time>2019-06-01T12:03:28Z</time>
      </trkpt>
      <trkpt lat="44.91394" lon="5.50082">
        <ele>1655.474</ele>
        <time>2019-06-01T12:03:38Z</time>
      </trkpt>
      <trkpt lat="44.91387" lon="5.50081">
        <ele>1654.978</ele>
        <time>2019-06-01T12:03:49Z</time>
      </trkpt>
      <trkpt lat="44.91381" lon="5.50088">
        <ele>1654.538</ele>
        <time>2019-06-01T12:03:59Z</time>
      </trkpt>
      <trkpt lat="44.9138" lon="5.50089">
        <ele>1654.61</ele>
        <time>2019-06-01T12:04:09Z</time>
      </trkpt>
      <trkpt lat="44.91376" lon="5.50094">
        <ele>1654.43</ele>
        <time>2019-06-01T12:04:20Z</time>
      </trkpt>
      <trkpt lat="44.91374" lon="5.50102">
        <ele>1654.24</ele>
        <time>2019-06-01T12:04:31Z</time>
      </trkpt>
      <trkpt lat="44.9137" lon="5.50107">
        <ele>1654.066</ele>
        <time>2019-06-01T12:04:42Z</time>
      </trkpt>
      <trkpt lat="44.91366" lon="5.50114">
        <ele>1653.939</ele>
        <time>2019-06-01T12:04:52Z</time>
      </trkpt>
      <trkpt lat="44.91358" lon="5.50117">
        <ele>1653.735</ele>
        <time>2019-06-01T12:05:03Z</time>
      </trkpt>
      <trkpt lat="44.91351" lon="5.50126">
        <ele>1653.62</ele>
        <time>2019-06-01T12:05:14Z</time>
      </trkpt>
      <trkpt lat="44.91346" lon="5.5013">
        <ele>1653.561</ele>
        <time>2019-06-01T12:05:25Z</time>
      </trkpt>
      <trkpt lat="44.91339" lon="5.50134">
        <ele>1654.237</ele>
        <time>2019-06-01T12:05:35Z</time>
      </trkpt>
      <trkpt lat="44.91331" lon="5.50134">
        <ele>1655.068</ele>
        <time>2019-06-01T12:05:46Z</time>
      </trkpt>
      <trkpt lat="44.91325" lon="5.50142">
        <ele>1655.608</ele>
        <time>2019-06-01T12:05:57Z</time>
      </trkpt>
      <trkpt lat="44.91317" lon="5.5015">
        <ele>1655.424</ele>
        <time>2019-06-01T12:06:08Z</time>
      </trkpt>
      <trkpt lat="44.91306" lon="5.50159">
        <ele>1655.51</ele>
        <time>2019-06-01T12:06:20Z</time>
      </trkpt>
      <trkpt lat="44.91301" lon="5.50162">
        <ele>1656.095</ele>
        <time>2019-06-01T12:06:31Z</time>
      </trkpt>
      <trkpt lat="44.9129" lon="5.50163">
        <ele>1655.475</ele>
        <time>2019-06-01T12:06:41Z</time>
      </trkpt>
      <trkpt lat="44.91287" lon="5.50161">
        <ele>1655.302</ele>
        <time>2019-06-01T12:06:51Z</time>
      </trkpt>
      <trkpt lat="44.9128" lon="5.50162">
        <ele>1655.374</ele>
        <time>2019-06-01T12:07:02Z</time>
      </trkpt>
      <trkpt lat="44.91269" lon="5.5016">
        <ele>1655.64</ele>
        <time>2019-06-01T12:07:13Z</time>
      </trkpt>
      <trkpt lat="44.91262" lon="5.50164">
        <ele>1655.657</ele>
        <time>2019-06-01T12:07:23Z</time>
      </trkpt>
      <trkpt lat="44.91255" lon="5.50166">
        <ele>1655.814</ele>
        <time>2019-06-01T12:07:33Z</time>
      </trkpt>
      <trkpt lat="44.91246" lon="5.50169">
        <ele>1655.978</ele>
        <time>2019-06-01T12:07:44Z</time>
      </trkpt>
      <trkpt lat="44.9124" lon="5.50175">
        <ele>1656.345</ele>
        <time>2019-06-01T12:07:54Z</time>
      </trkpt>
      <trkpt lat="44.9123" lon="5.5018">
        <ele>1657.65</ele>
        <time>2019-06-01T12:08:05Z</time>
      </trkpt>
      <trkpt lat="44.91224" lon="5.5019">
        <ele>1658.828</ele>
        <time>2019-06-01T12:08:15Z</time>
      </trkpt>
      <trkpt lat="44.9122" lon="5.50193">
        <ele>1659.683</ele>
        <time>2019-06-01T12:08:25Z</time>
      </trkpt>
      <trkpt lat="44.91211" lon="5.50197">
        <ele>1660.639</ele>
        <time>2019-06-01T12:08:36Z</time>
      </trkpt>
      <trkpt lat="44.912" lon="5.50202">
        <ele>1661.683</ele>
        <time>2019-06-01T12:08:46Z</time>
      </trkpt>
      <trkpt lat="44.91187" lon="5.50203">
        <ele>1662.61</ele>
        <time>2019-06-01T12:08:57Z</time>
      </trkpt>
      <trkpt lat="44.91178" lon="5.50202">
        <ele>1663.521</ele>
        <time>2019-06-01T12:09:07Z</time>
      </trkpt>
      <trkpt lat="44.91169" lon="5.502">
        <ele>1664.379</ele>
        <time>2019-06-01T12:09:18Z</time>
      </trkpt>
      <trkpt lat="44.91166" lon="5.50197">
        <ele>1664.55</ele>
        <time>2019-06-01T12:09:29Z</time>
      </trkpt>
      <trkpt lat="44.9116" lon="5.50194">
        <ele>1664.421</ele>
        <time>2019-06-01T12:09:39Z</time>
      </trkpt>
      <trkpt lat="44.91155" lon="5.50197">
        <ele>1664.126</ele>
        <time>2019-06-01T12:09:50Z</time>
      </trkpt>
      <trkpt lat="44.91147" lon="5.50195">
        <ele>1663.823</ele>
        <time>2019-06-01T12:10:00Z</time>
      </trkpt>
      <trkpt lat="44.91141" lon="5.50193">
        <ele>1663.226</ele>
        <time>2019-06-01T12:10:11Z</time>
      </trkpt>
      <trkpt lat="44.9113" lon="5.50191">
        <ele>1663.154</ele>
        <time>2019-06-01T12:10:21Z</time>
      </trkpt>
      <trkpt lat="44.91116" lon="5.50193">
        <ele>1663.379</ele>
        <time>2019-06-01T12:10:32Z</time>
      </trkpt>
      <trkpt lat="44.91106" lon="5.50198">
        <ele>1663.488</ele>
        <time>2019-06-01T12:10:43Z</time>
      </trkpt>
      <trkpt lat="44.91097" lon="5.50202">
        <ele>1663.522</ele>
        <time>2019-06-01T12:10:54Z</time>
      </trkpt>
      <trkpt lat="44.91086" lon="5.50207">
        <ele>1663.77</ele>
        <time>2019-06-01T12:11:05Z</time>
      </trkpt>
      <trkpt lat="44.91076" lon="5.5021">
        <ele>1664.623</ele>
        <time>2019-06-01T12:11:15Z</time>
      </trkpt>
      <trkpt lat="44.91068" lon="5.50219">
        <ele>1665.737</ele>
        <time>2019-06-01T12:11:26Z</time>
      </trkpt>
      <trkpt lat="44.91062" lon="5.50234">
        <ele>1670.073</ele>
        <time>2019-06-01T12:11:40Z</time>
      </trkpt>
      <trkpt lat="44.91063" lon="5.50218">
        <ele>1671.46</ele>
        <time>2019-06-01T12:11:50Z</time>
      </trkpt>
      <trkpt lat="44.91067" lon="5.50206">
        <ele>1671.553</ele>
        <time>2019-06-01T12:12:00Z</time>
      </trkpt>
      <trkpt lat="44.91071" lon="5.50208">
        <ele>1670.659</ele>
        <time>2019-06-01T12:12:11Z</time>
      </trkpt>
      <trkpt lat="44.91064" lon="5.50218">
        <ele>1670.313</ele>
        <time>2019-06-01T12:12:21Z</time>
      </trkpt>
      <trkpt lat="44.91069" lon="5.50214">
        <ele>1671.813</ele>
        <time>2019-06-01T12:12:32Z</time>
      </trkpt>
      <trkpt lat="44.91079" lon="5.50219">
        <ele>1663.015</ele>
        <time>2019-06-01T12:14:27Z</time>
      </trkpt>
      <trkpt lat="44.91078" lon="5.50215">
        <ele>1661.362</ele>
        <time>2019-06-01T12:14:38Z</time>
      </trkpt>
      <trkpt lat="44.91074" lon="5.50212">
        <ele>1660.409</ele>
        <time>2019-06-01T12:14:48Z</time>
      </trkpt>
      <trkpt lat="44.91068" lon="5.50208">
        <ele>1657.696</ele>
        <time>2019-06-01T12:14:59Z</time>
      </trkpt>
      <trkpt lat="44.91059" lon="5.50207">
        <ele>1656.324</ele>
        <time>2019-06-01T12:15:10Z</time>
      </trkpt>
      <trkpt lat="44.91059" lon="5.50212">
        <ele>1655.161</ele>
        <time>2019-06-01T12:15:21Z</time>
      </trkpt>
      <trkpt lat="44.9106" lon="5.50213">
        <ele>1654.472</ele>
        <time>2019-06-01T12:15:31Z</time>
      </trkpt>
      <trkpt lat="44.91058" lon="5.50212">
        <ele>1653.745</ele>
        <time>2019-06-01T12:15:42Z</time>
      </trkpt>
      <trkpt lat="44.91056" lon="5.50212">
        <ele>1653.196</ele>
        <time>2019-06-01T12:15:53Z</time>
      </trkpt>
      <trkpt lat="44.91055" lon="5.50213">
        <ele>1652.63</ele>
        <time>2019-06-01T12:16:04Z</time>
      </trkpt>
      <trkpt lat="44.91058" lon="5.50211">
        <ele>1651.997</ele>
        <time>2019-06-01T12:16:15Z</time>
      </trkpt>
      <trkpt lat="44.91058" lon="5.5021">
        <ele>1651.867</ele>
        <time>2019-06-01T12:16:25Z</time>
      </trkpt>
      <trkpt lat="44.91059" lon="5.5021">
        <ele>1651.844</ele>
        <time>2019-06-01T12:16:36Z</time>
      </trkpt>
      <trkpt lat="44.9106" lon="5.50211">
        <ele>1652.019</ele>
        <time>2019-06-01T12:16:47Z</time>
      </trkpt>
      <trkpt lat="44.91062" lon="5.50212">
        <ele>1652.752</ele>
        <time>2019-06-01T12:16:57Z</time>
      </trkpt>
      <trkpt lat="44.91062" lon="5.50213">
        <ele>1653.503</ele>
        <time>2019-06-01T12:17:08Z</time>
      </trkpt>
      <trkpt lat="44.9106" lon="5.50212">
        <ele>1654.328</ele>
        <time>2019-06-01T12:17:19Z</time>
      </trkpt>
      <trkpt lat="44.91061" lon="5.50211">
        <ele>1655.068</ele>
        <time>2019-06-01T12:17:29Z</time>
      </trkpt>
      <trkpt lat="44.91063" lon="5.50212">
        <ele>1655.427</ele>
        <time>2019-06-01T12:17:39Z</time>
      </trkpt>
      <trkpt lat="44.91064" lon="5.50209">
        <ele>1656.706</ele>
        <time>2019-06-01T12:17:50Z</time>
      </trkpt>
      <trkpt lat="44.91063" lon="5.50205">
        <ele>1657.748</ele>
        <time>2019-06-01T12:18:01Z</time>
      </trkpt>
      <trkpt lat="44.91064" lon="5.50203">
        <ele>1659.243</ele>
        <time>2019-06-01T12:18:12Z</time>
      </trkpt>
      <trkpt lat="44.9107" lon="5.50198">
        <ele>1661.875</ele>
        <time>2019-06-01T12:18:23Z</time>
      </trkpt>
    </trkseg>
  </trk>
</gpx>